Observation data for Romero 11SSW on 07/12/2020      Previous  Date  Next       Current Mesonet Observations  Soil Data  Daily Summary Page  Observations in Plain Language
KBR1 120500Z 04012KT 30/09 A3006 RMK A01 T02970088  RH  027%=      5-min Rain = 0
KBR1 120501Z 05012KT 30/09 A3006 RMK A01 T02970088  RH  027%=      5-min Rain = 0
KBR1 120502Z 04012KT 30/09 A3006 RMK A01 T02970088  RH  027%=      5-min Rain = 0
KBR1 120503Z 04013KT 30/09 A3006 RMK A01 T02970089  RH  027%=      5-min Rain = 0
KBR1 120504Z 04013KT 30/09 A3006 RMK A01 T02960088  RH  027%=      5-min Rain = 0
KBR1 120505Z 04012KT 30/09 A3006 RMK A01 T02960088  RH  027%=      5-min Rain = 0
KBR1 120506Z 04011KT 30/09 A3006 RMK A01 T02960088  RH  027%=      5-min Rain = 0
KBR1 120507Z 04011KT 30/09 A3006 RMK A01 T02960088  RH  027%=      5-min Rain = 0
KBR1 120508Z 05012KT 30/09 A3006 RMK A01 T02960088  RH  027%=      5-min Rain = 0
KBR1 120509Z 05010KT 30/09 A3006 RMK A01 T02960087  RH  027%=      5-min Rain = 0
KBR1 120510Z 05011KT 30/09 A3006 RMK A01 T02960088  RH  027%=      5-min Rain = 0
KBR1 120511Z 05010KT 30/09 A3006 RMK A01 T02950089  RH  028%=      5-min Rain = 0
KBR1 120512Z 05011KT 30/09 A3006 RMK A01 T02950088  RH  027%=      5-min Rain = 0
KBR1 120513Z 05011KT 30/09 A3005 RMK A01 T02950088  RH  027%=      5-min Rain = 0
KBR1 120514Z 05011KT 30/09 A3005 RMK A01 T02950088  RH  028%=      5-min Rain = 0
KBR1 120515Z 05011KT 29/09 A3005 RMK A01 T02940088  RH  028%=      5-min Rain = 0
KBR1 120516Z 05011KT 29/09 A3005 RMK A01 T02930089  RH  028%=      5-min Rain = 0
KBR1 120517Z 05010KT 29/09 A3005 RMK A01 T02930088  RH  028%=      5-min Rain = 0
KBR1 120518Z 05010KT 29/09 A3005 RMK A01 T02920088  RH  028%=      5-min Rain = 0
KBR1 120519Z 05010KT 29/09 A3005 RMK A01 T02920088  RH  028%=      5-min Rain = 0
KBR1 120520Z 05010KT 29/09 A3005 RMK A01 T02920088  RH  028%=      5-min Rain = 0
KBR1 120521Z 05010KT 29/09 A3005 RMK A01 T02910089  RH  028%=      5-min Rain = 0
KBR1 120522Z 05010KT 29/09 A3005 RMK A01 T02900088  RH  028%=      5-min Rain = 0
KBR1 120523Z 05010KT 29/09 A3005 RMK A01 T02900089  RH  028%=      5-min Rain = 0
KBR1 120524Z 05010KT 29/09 A3005 RMK A01 T02890089  RH  029%=      5-min Rain = 0
KBR1 120525Z 05010KT 29/09 A3005 RMK A01 T02880089  RH  029%=      5-min Rain = 0
KBR1 120526Z 05010KT 29/09 A3005 RMK A01 T02880089  RH  029%=      5-min Rain = 0
KBR1 120527Z 05010KT 29/09 A3005 RMK A01 T02870090  RH  029%=      5-min Rain = 0
KBR1 120528Z 05010KT 29/09 A3005 RMK A01 T02870090  RH  029%=      5-min Rain = 0
KBR1 120529Z 05010KT 29/09 A3005 RMK A01 T02860090  RH  029%=      5-min Rain = 0
KBR1 120530Z 05010KT 29/09 A3005 RMK A01 T02850089  RH  029%=      5-min Rain = 0
KBR1 120531Z 05009KT 29/09 A3005 RMK A01 T02860090  RH  029%=      5-min Rain = 0
KBR1 120532Z 05009KT 29/09 A3005 RMK A01 T02850090  RH  030%=      5-min Rain = 0
KBR1 120533Z 05010KT 28/09 A3005 RMK A01 T02840090  RH  030%=      5-min Rain = 0
KBR1 120534Z 05010KT 28/09 A3005 RMK A01 T02840090  RH  030%=      5-min Rain = 0
KBR1 120535Z 05010KT 28/09 A3005 RMK A01 T02840090  RH  030%=      5-min Rain = 0
KBR1 120536Z 05009KT 28/09 A3005 RMK A01 T02840090  RH  030%=      5-min Rain = 0
KBR1 120537Z 05009KT 28/09 A3005 RMK A01 T02840090  RH  030%=      5-min Rain = 0
KBR1 120538Z 05009KT 28/09 A3005 RMK A01 T02840090  RH  030%=      5-min Rain = 0
KBR1 120539Z 05009KT 28/09 A3005 RMK A01 T02830090  RH  030%=      5-min Rain = 0
KBR1 120540Z 05008KT 28/09 A3006 RMK A01 T02830090  RH  030%=      5-min Rain = 0
KBR1 120541Z 06009KT 28/09 A3006 RMK A01 T02830090  RH  030%=      5-min Rain = 0
KBR1 120542Z 06009KT 28/09 A3006 RMK A01 T02830090  RH  030%=      5-min Rain = 0
KBR1 120543Z 06009KT 28/09 A3006 RMK A01 T02830090  RH  030%=      5-min Rain = 0
KBR1 120544Z 06008KT 28/09 A3006 RMK A01 T02830089  RH  030%=      5-min Rain = 0
KBR1 120545Z 07008KT 28/09 A3006 RMK A01 T02830089  RH  030%=      5-min Rain = 0
KBR1 120546Z 07008KT 28/09 A3006 RMK A01 T02840090  RH  030%=      5-min Rain = 0
KBR1 120547Z 07009KT 28/09 A3006 RMK A01 T02830090  RH  030%=      5-min Rain = 0
KBR1 120548Z 07009KT 28/09 A3006 RMK A01 T02820090  RH  030%=      5-min Rain = 0
KBR1 120549Z 07008KT 28/09 A3006 RMK A01 T02820090  RH  030%=      5-min Rain = 0
KBR1 120550Z 07008KT 28/09 A3006 RMK A01 T02810090  RH  030%=      5-min Rain = 0
KBR1 120551Z 07008KT 28/09 A3006 RMK A01 T02810090  RH  030%=      5-min Rain = 0
KBR1 120552Z 07008KT 28/09 A3006 RMK A01 T02810091  RH  030%=      5-min Rain = 0
KBR1 120553Z 07008KT 28/09 A3006 RMK A01 T02800091  RH  031%=      5-min Rain = 0
KBR1 120554Z 07008KT 28/09 A3006 RMK A01 T02790091  RH  031%=      5-min Rain = 0
KBR1 120555Z 07008KT 28/09 A3006 RMK A01 T02780091  RH  031%=      5-min Rain = 0
KBR1 120556Z 07008KT 28/09 A3006 RMK A01 T02780091  RH  031%=      5-min Rain = 0
KBR1 120557Z 07008KT 28/09 A3006 RMK A01 T02790090  RH  031%=      5-min Rain = 0
KBR1 120558Z 07008KT 28/09 A3006 RMK A01 T02790091  RH  031%=      5-min Rain = 0
KBR1 120559Z 07008KT 28/09 A3006 RMK A01 T02790091  RH  031%=      5-min Rain = 0
KBR1 120600Z 07008KT 28/09 A3006 RMK A01 T02790091  RH  031%=      5-min Rain = 0
KBR1 120601Z 07008KT 28/09 A3006 RMK A01 T02780090  RH  031%=      5-min Rain = 0
KBR1 120602Z 07008KT 28/09 A3006 RMK A01 T02790090  RH  030%=      5-min Rain = 0
KBR1 120603Z 07008KT 28/09 A3006 RMK A01 T02800089  RH  030%=      5-min Rain = 0
KBR1 120604Z 07008KT 28/09 A3006 RMK A01 T02800089  RH  030%=      5-min Rain = 0
KBR1 120605Z 07008KT 28/09 A3006 RMK A01 T02800089  RH  030%=      5-min Rain = 0
KBR1 120606Z 07008KT 28/09 A3006 RMK A01 T02800091  RH  030%=      5-min Rain = 0
KBR1 120607Z 07008KT 28/09 A3006 RMK A01 T02790092  RH  031%=      5-min Rain = 0
KBR1 120608Z 07008KT 28/09 A3006 RMK A01 T02770092  RH  031%=      5-min Rain = 0
KBR1 120609Z 07008KT 28/09 A3006 RMK A01 T02760092  RH  031%=      5-min Rain = 0
KBR1 120610Z 07007KT 28/09 A3006 RMK A01 T02750092  RH  032%=      5-min Rain = 0
KBR1 120611Z 07007KT 27/09 A3006 RMK A01 T02740092  RH  032%=      5-min Rain = 0
KBR1 120612Z 07008KT 27/09 A3006 RMK A01 T02740093  RH  032%=      5-min Rain = 0
KBR1 120613Z 08008KT 27/09 A3007 RMK A01 T02730093  RH  032%=      5-min Rain = 0
KBR1 120614Z 08008KT 27/09 A3007 RMK A01 T02720091  RH  032%=      5-min Rain = 0
KBR1 120615Z 09009KT 27/09 A3007 RMK A01 T02730090  RH  032%=      5-min Rain = 0
KBR1 120616Z 11009KT 27/09 A3007 RMK A01 T02740090  RH  031%=      5-min Rain = 0
KBR1 120617Z 12009KT 28/09 A3007 RMK A01 T02770087  RH  030%=      5-min Rain = 0
KBR1 120618Z 11010KT 28/09 A3007 RMK A01 T02810086  RH  029%=      5-min Rain = 0
KBR1 120619Z 12010KT 29/09 A3007 RMK A01 T02860086  RH  029%=      5-min Rain = 0
KBR1 120620Z 13010KT 29/09 A3007 RMK A01 T02870088  RH  029%=      5-min Rain = 0
KBR1 120621Z 13009KT 28/09 A3007 RMK A01 T02830089  RH  030%=      5-min Rain = 0
KBR1 120622Z 13008KT 28/09 A3007 RMK A01 T02790090  RH  030%=      5-min Rain = 0
KBR1 120623Z 13008KT 28/09 A3007 RMK A01 T02760090  RH  031%=      5-min Rain = 0
KBR1 120624Z 13008KT 27/09 A3007 RMK A01 T02740091  RH  032%=      5-min Rain = 0
KBR1 120625Z 13007KT 27/09 A3007 RMK A01 T02720091  RH  032%=      5-min Rain = 0
KBR1 120626Z 13007KT 27/09 A3007 RMK A01 T02700091  RH  033%=      5-min Rain = 0
KBR1 120627Z 13007KT 27/09 A3007 RMK A01 T02680092  RH  033%=      5-min Rain = 0
KBR1 120628Z 13007KT 27/09 A3007 RMK A01 T02670092  RH  033%=      5-min Rain = 0
KBR1 120629Z 13008KT 27/09 A3007 RMK A01 T02650093  RH  034%=      5-min Rain = 0
KBR1 120630Z 14008KT 26/09 A3007 RMK A01 T02640093  RH  034%=      5-min Rain = 0
KBR1 120631Z 14009KT 26/09 A3007 RMK A01 T02640091  RH  034%=      5-min Rain = 0
KBR1 120632Z 14009KT 27/09 A3008 RMK A01 T02650092  RH  034%=      5-min Rain = 0
KBR1 120633Z 14009KT 27/09 A3008 RMK A01 T02650092  RH  034%=      5-min Rain = 0
KBR1 120634Z 14009KT 27/09 A3008 RMK A01 T02660092  RH  033%=      5-min Rain = 0
KBR1 120635Z 14009KT 27/09 A3008 RMK A01 T02660091  RH  033%=      5-min Rain = 0
KBR1 120636Z 15009KT 27/09 A3008 RMK A01 T02670091  RH  033%=      5-min Rain = 0
KBR1 120637Z 15009KT 27/09 A3008 RMK A01 T02670090  RH  033%=      5-min Rain = 0
KBR1 120638Z 15009KT 27/09 A3008 RMK A01 T02700090  RH  032%=      5-min Rain = 0
KBR1 120639Z 15010KT 27/09 A3008 RMK A01 T02720090  RH  032%=      5-min Rain = 0
KBR1 120640Z 15009KT 27/09 A3008 RMK A01 T02740091  RH  032%=      5-min Rain = 0
KBR1 120641Z 15009KT 28/09 A3008 RMK A01 T02760091  RH  031%=      5-min Rain = 0
KBR1 120642Z 15008KT 28/09 A3008 RMK A01 T02760091  RH  031%=      5-min Rain = 0
KBR1 120643Z 15007KT 28/09 A3008 RMK A01 T02760091  RH  031%=      5-min Rain = 0
KBR1 120644Z 15009KT 28/09 A3008 RMK A01 T02750091  RH  032%=      5-min Rain = 0
KBR1 120645Z 15009KT 27/09 A3008 RMK A01 T02730090  RH  032%=      5-min Rain = 0
KBR1 120646Z 15009KT 27/09 A3008 RMK A01 T02740091  RH  032%=      5-min Rain = 0
KBR1 120647Z 15008KT 28/09 A3008 RMK A01 T02750092  RH  032%=      5-min Rain = 0
KBR1 120648Z 15009KT 28/09 A3008 RMK A01 T02750091  RH  032%=      5-min Rain = 0
KBR1 120649Z 15008KT 28/09 A3008 RMK A01 T02760091  RH  031%=      5-min Rain = 0
KBR1 120650Z 15007KT 28/09 A3008 RMK A01 T02780092  RH  031%=      5-min Rain = 0
KBR1 120651Z 15007KT 28/09 A3008 RMK A01 T02780093  RH  031%=      5-min Rain = 0
KBR1 120652Z 14007KT 28/09 A3008 RMK A01 T02780092  RH  031%=      5-min Rain = 0
KBR1 120653Z 14006KT 28/09 A3008 RMK A01 T02780093  RH  031%=      5-min Rain = 0
KBR1 120654Z 14006KT 28/09 A3008 RMK A01 T02780093  RH  032%=      5-min Rain = 0
KBR1 120655Z 14007KT 28/09 A3008 RMK A01 T02760094  RH  032%=      5-min Rain = 0
KBR1 120656Z 14007KT 28/09 A3008 RMK A01 T02760094  RH  032%=      5-min Rain = 0
KBR1 120657Z 14006KT 28/10 A3009 RMK A01 T02750095  RH  032%=      5-min Rain = 0
KBR1 120658Z 13004KT 27/10 A3009 RMK A01 T02740095  RH  033%=      5-min Rain = 0
KBR1 120659Z 05003KT 27/10 A3009 RMK A01 T02730095  RH  033%=      5-min Rain = 0
KBR1 120700Z 00010KT 27/10 A301 RMK A01 T02720100  RH  034%=      5-min Rain = 0
KBR1 120701Z 02010KT 27/10 A301 RMK A01 T02680098  RH  034%=      5-min Rain = 0
KBR1 120702Z 02011KT 27/10 A301 RMK A01 T02660095  RH  034%=      5-min Rain = 0
KBR1 120703Z 01009KT 27/09 A301 RMK A01 T02700094  RH  033%=      5-min Rain = 0
KBR1 120704Z 02010KT 27/10 A301 RMK A01 T02730095  RH  033%=      5-min Rain = 0
KBR1 120705Z 02010KT 27/10 A301 RMK A01 T02740095  RH  033%=      5-min Rain = 0
KBR1 120706Z 03009KT 27/10 A301 RMK A01 T02740095  RH  033%=      5-min Rain = 0
KBR1 120707Z 07009KT 28/10 A301 RMK A01 T02750095  RH  032%=      5-min Rain = 0
KBR1 120708Z 08004KT 28/10 A301 RMK A01 T02820095  RH  031%=      5-min Rain = 0
KBR1 120709Z 10006KT 29/10 A301 RMK A01 T02870096  RH  030%=      5-min Rain = 0
KBR1 120710Z 07006KT 29/10 A301 RMK A01 T02900097  RH  030%=      5-min Rain = 0
KBR1 120711Z 05006KT 29/10 A301 RMK A01 T02910096  RH  030%=      5-min Rain = 0
KBR1 120712Z 04007KT 29/10 A301 RMK A01 T02870096  RH  030%=      5-min Rain = 0
KBR1 120713Z 04009KT 28/10 A301 RMK A01 T02830097  RH  031%=      5-min Rain = 0
KBR1 120714Z 03011KT 28/10 A301 RMK A01 T02800097  RH  032%=      5-min Rain = 0
KBR1 120715Z 02010KT 28/10 A301 RMK A01 T02800097  RH  032%=      5-min Rain = 0
KBR1 120716Z 03010KT 28/10 A301 RMK A01 T02790097  RH  032%=      5-min Rain = 0
KBR1 120717Z 02008KT 28/10 A301 RMK A01 T02790098  RH  032%=      5-min Rain = 0
KBR1 120718Z 03007KT 28/10 A301 RMK A01 T02790098  RH  032%=      5-min Rain = 0
KBR1 120719Z 03006KT 28/10 A301 RMK A01 T02770098  RH  033%=      5-min Rain = 0
KBR1 120720Z 03006KT 28/10 A301 RMK A01 T02760099  RH  033%=      5-min Rain = 0
KBR1 120721Z 03005KT 28/10 A301 RMK A01 T02750098  RH  033%=      5-min Rain = 0
KBR1 120722Z 03004KT 28/10 A3009 RMK A01 T02750098  RH  033%=      5-min Rain = 0
KBR1 120723Z 02004KT 27/10 A3009 RMK A01 T02740098  RH  033%=      5-min Rain = 0
KBR1 120724Z 03005KT 27/10 A301 RMK A01 T02740099  RH  033%=      5-min Rain = 0
KBR1 120725Z 02008KT 27/10 A301 RMK A01 T02730099  RH  034%=      5-min Rain = 0
KBR1 120726Z 02010KT 27/10 A301 RMK A01 T02720102  RH  034%=      5-min Rain = 0
KBR1 120727Z 02008KT 27/11 A301 RMK A01 T02720105  RH  035%=      5-min Rain = 0
KBR1 120728Z 03007KT 27/11 A301 RMK A01 T02720106  RH  036%=      5-min Rain = 0
KBR1 120729Z 03006KT 27/11 A301 RMK A01 T02710109  RH  036%=      5-min Rain = 0
KBR1 120730Z 03006KT 27/11 A3011 RMK A01 T02710111  RH  037%=      5-min Rain = 0
KBR1 120731Z 03005KT 27/11 A3011 RMK A01 T02700113  RH  038%=      5-min Rain = 0
KBR1 120732Z 03005KT 27/11 A3011 RMK A01 T02690114  RH  038%=      5-min Rain = 0
KBR1 120733Z 02004KT 27/12 A3011 RMK A01 T02680116  RH  039%=      5-min Rain = 0
KBR1 120734Z 02005KT 27/12 A3011 RMK A01 T02680117  RH  039%=      5-min Rain = 0
KBR1 120735Z 01005KT 27/12 A301 RMK A01 T02670118  RH  039%=      5-min Rain = 0
KBR1 120736Z 35006KT 27/12 A301 RMK A01 T02670118  RH  040%=      5-min Rain = 0
KBR1 120737Z 35006KT 27/12 A301 RMK A01 T02660118  RH  040%=      5-min Rain = 0
KBR1 120738Z 35006KT 27/12 A301 RMK A01 T02660117  RH  040%=      5-min Rain = 0
KBR1 120739Z 35005KT 27/12 A301 RMK A01 T02650118  RH  040%=      5-min Rain = 0
KBR1 120740Z 35005KT 26/12 A301 RMK A01 T02630117  RH  040%=      5-min Rain = 0
KBR1 120741Z 35006KT 26/12 A301 RMK A01 T02620119  RH  041%=      5-min Rain = 0
KBR1 120742Z 35006KT 26/12 A301 RMK A01 T02600121  RH  042%=      5-min Rain = 0
KBR1 120743Z 36006KT 26/12 A301 RMK A01 T02580122  RH  043%=      5-min Rain = 0
KBR1 120744Z 00006KT 26/12 A3011 RMK A01 T02560124  RH  044%=      5-min Rain = 0
KBR1 120745Z 01006KT 26/13 A3011 RMK A01 T02550126  RH  045%=      5-min Rain = 0
KBR1 120746Z 01006KT 26/13 A3011 RMK A01 T02550127  RH  045%=      5-min Rain = 0
KBR1 120747Z 01006KT 25/13 A3011 RMK A01 T02540128  RH  045%=      5-min Rain = 0
KBR1 120748Z 01006KT 25/13 A3011 RMK A01 T02540129  RH  046%=      5-min Rain = 0
KBR1 120749Z 00007KT 25/13 A3011 RMK A01 T02540130  RH  046%=      5-min Rain = 0
KBR1 120750Z 00008KT 25/13 A3011 RMK A01 T02530131  RH  047%=      5-min Rain = 0
KBR1 120751Z 36008KT 25/13 A3011 RMK A01 T02530132  RH  047%=      5-min Rain = 0
KBR1 120752Z 35008KT 25/13 A3011 RMK A01 T02530133  RH  047%=      5-min Rain = 0
KBR1 120753Z 35008KT 25/13 A3011 RMK A01 T02520133  RH  047%=      5-min Rain = 0
KBR1 120754Z 36008KT 25/13 A3011 RMK A01 T02510133  RH  048%=      5-min Rain = 0
KBR1 120755Z 36008KT 25/14 A3011 RMK A01 T02510136  RH  049%=      5-min Rain = 0
KBR1 120756Z 36007KT 25/14 A3011 RMK A01 T02500136  RH  049%=      5-min Rain = 0
KBR1 120757Z 36008KT 25/14 A3011 RMK A01 T02500137  RH  049%=      5-min Rain = 0
KBR1 120758Z 00007KT 25/14 A3011 RMK A01 T02500138  RH  050%=      5-min Rain = 0
KBR1 120759Z 00006KT 25/14 A3011 RMK A01 T02500138  RH  050%=      5-min Rain = 0
KBR1 120800Z 01006KT 25/14 A3011 RMK A01 T02500138  RH  050%=      5-min Rain = 0
KBR1 120801Z 01006KT 25/14 A3011 RMK A01 T02500138  RH  050%=      5-min Rain = 0
KBR1 120802Z 01006KT 25/14 A3011 RMK A01 T02490138  RH  050%=      5-min Rain = 0
KBR1 120803Z 01007KT 25/14 A3011 RMK A01 T02480139  RH  051%=      5-min Rain = 0
KBR1 120804Z 01007KT 25/14 A3011 RMK A01 T02480140  RH  051%=      5-min Rain = 0
KBR1 120805Z 01008KT 25/14 A3011 RMK A01 T02470141  RH  052%=      5-min Rain = 0
KBR1 120806Z 01008KT 25/14 A3011 RMK A01 T02470142  RH  052%=      5-min Rain = 0
KBR1 120807Z 01010KT 25/14 A3011 RMK A01 T02470144  RH  053%=      5-min Rain = 0
KBR1 120808Z 01010KT 25/14 A3011 RMK A01 T02470144  RH  053%=      5-min Rain = 0
KBR1 120809Z 01010KT 25/15 A301 RMK A01 T02470146  RH  053%=      5-min Rain = 0
KBR1 120810Z 01010KT 25/15 A301 RMK A01 T02470148  RH  054%=      5-min Rain = 0
KBR1 120811Z 01010KT 25/15 A301 RMK A01 T02470149  RH  054%=      5-min Rain = 0
KBR1 120812Z 01010KT 25/15 A301 RMK A01 T02470149  RH  054%=      5-min Rain = 0
KBR1 120813Z 00010KT 25/15 A301 RMK A01 T02470151  RH  055%=      5-min Rain = 0
KBR1 120814Z 00011KT 25/15 A301 RMK A01 T02470151  RH  055%=      5-min Rain = 0
KBR1 120815Z 00011KT 25/15 A301 RMK A01 T02470151  RH  055%=      5-min Rain = 0
KBR1 120816Z 00011KT 25/15 A301 RMK A01 T02470152  RH  055%=      5-min Rain = 0
KBR1 120817Z 01011KT 25/15 A301 RMK A01 T02470152  RH  056%=      5-min Rain = 0
KBR1 120818Z 01011KT 25/15 A301 RMK A01 T02460152  RH  056%=      5-min Rain = 0
KBR1 120819Z 02011KT 25/15 A301 RMK A01 T02460152  RH  056%=      5-min Rain = 0
KBR1 120820Z 02012KT 25/15 A301 RMK A01 T02460153  RH  056%=      5-min Rain = 0
KBR1 120821Z 02011KT 25/15 A301 RMK A01 T02460153  RH  056%=      5-min Rain = 0
KBR1 120822Z 02012KT 25/15 A301 RMK A01 T02460153  RH  056%=      5-min Rain = 0
KBR1 120823Z 01011KT 25/15 A301 RMK A01 T02460154  RH  056%=      5-min Rain = 0
KBR1 120824Z 02012KT 25/15 A301 RMK A01 T02450153  RH  057%=      5-min Rain = 0
KBR1 120825Z 01012KT 25/15 A301 RMK A01 T02450153  RH  057%=      5-min Rain = 0
KBR1 120826Z 01012KT 25/15 A301 RMK A01 T02450153  RH  057%=      5-min Rain = 0
KBR1 120827Z 02013KT 25/15 A301 RMK A01 T02450153  RH  057%=      5-min Rain = 0
KBR1 120828Z 02014KT 25/15 A301 RMK A01 T02460154  RH  057%=      5-min Rain = 0
KBR1 120829Z 02013KT 25/15 A301 RMK A01 T02460154  RH  056%=      5-min Rain = 0
KBR1 120830Z 02012KT 25/15 A3011 RMK A01 T02460154  RH  057%=      5-min Rain = 0
KBR1 120831Z 01012KT 25/15 A3011 RMK A01 T02450154  RH  057%=      5-min Rain = 0
KBR1 120832Z 01012KT 24/16 A3011 RMK A01 T02440155  RH  057%=      5-min Rain = 0
KBR1 120833Z 02011KT 24/16 A3011 RMK A01 T02440155  RH  057%=      5-min Rain = 0
KBR1 120834Z 01011KT 24/16 A3011 RMK A01 T02440155  RH  058%=      5-min Rain = 0
KBR1 120835Z 01011KT 24/16 A3011 RMK A01 T02430155  RH  058%=      5-min Rain = 0
KBR1 120836Z 02012KT 24/16 A3011 RMK A01 T02430155  RH  058%=      5-min Rain = 0
KBR1 120837Z 02012KT 24/16 A3011 RMK A01 T02430156  RH  058%=      5-min Rain = 0
KBR1 120838Z 01012KT 24/16 A3011 RMK A01 T02430156  RH  058%=      5-min Rain = 0
KBR1 120839Z 01012KT 24/16 A301 RMK A01 T02420156  RH  058%=      5-min Rain = 0
KBR1 120840Z 02011KT 24/16 A301 RMK A01 T02410156  RH  059%=      5-min Rain = 0
KBR1 120841Z 02011KT 24/16 A301 RMK A01 T02410156  RH  059%=      5-min Rain = 0
KBR1 120842Z 02011KT 24/16 A301 RMK A01 T02400156  RH  059%=      5-min Rain = 0
KBR1 120843Z 01011KT 24/16 A301 RMK A01 T02400156  RH  059%=      5-min Rain = 0
KBR1 120844Z 01010KT 24/16 A301 RMK A01 T02390156  RH  060%=      5-min Rain = 0
KBR1 120845Z 01011KT 24/16 A301 RMK A01 T02390156  RH  060%=      5-min Rain = 0
KBR1 120846Z 01011KT 24/16 A301 RMK A01 T02380156  RH  060%=      5-min Rain = 0
KBR1 120847Z 01010KT 24/16 A301 RMK A01 T02380156  RH  060%=      5-min Rain = 0
KBR1 120848Z 01010KT 24/16 A301 RMK A01 T02370156  RH  061%=      5-min Rain = 0
KBR1 120849Z 01010KT 24/16 A301 RMK A01 T02370157  RH  061%=      5-min Rain = 0
KBR1 120850Z 01011KT 24/16 A301 RMK A01 T02360157  RH  061%=      5-min Rain = 0
KBR1 120851Z 01011KT 24/16 A301 RMK A01 T02360157  RH  061%=      5-min Rain = 0
KBR1 120852Z 01011KT 24/16 A3011 RMK A01 T02350157  RH  061%=      5-min Rain = 0
KBR1 120853Z 01010KT 24/16 A3011 RMK A01 T02360157  RH  061%=      5-min Rain = 0
KBR1 120854Z 01011KT 24/16 A3011 RMK A01 T02350158  RH  062%=      5-min Rain = 0
KBR1 120855Z 01010KT 24/16 A3011 RMK A01 T02350158  RH  062%=      5-min Rain = 0
KBR1 120856Z 01010KT 24/16 A3011 RMK A01 T02350158  RH  062%=      5-min Rain = 0
KBR1 120857Z 01011KT 23/16 A3011 RMK A01 T02340158  RH  062%=      5-min Rain = 0
KBR1 120858Z 01010KT 23/16 A3011 RMK A01 T02330157  RH  062%=      5-min Rain = 0
KBR1 120859Z 01010KT 23/16 A3011 RMK A01 T02330157  RH  062%=      5-min Rain = 0
KBR1 120900Z 02010KT 23/16 A3011 RMK A01 T02330157  RH  062%=      5-min Rain = 0
KBR1 120901Z 01009KT 23/16 A3011 RMK A01 T02330158  RH  063%=      5-min Rain = 0
KBR1 120902Z 01010KT 23/16 A301 RMK A01 T02320157  RH  063%=      5-min Rain = 0
KBR1 120903Z 01009KT 23/16 A301 RMK A01 T02310158  RH  063%=      5-min Rain = 0
KBR1 120904Z 02010KT 23/16 A301 RMK A01 T02310158  RH  063%=      5-min Rain = 0
KBR1 120905Z 02010KT 23/16 A301 RMK A01 T02310159  RH  064%=      5-min Rain = 0
KBR1 120906Z 01010KT 23/16 A301 RMK A01 T02310160  RH  064%=      5-min Rain = 0
KBR1 120907Z 01010KT 23/16 A301 RMK A01 T02310160  RH  064%=      5-min Rain = 0
KBR1 120908Z 01010KT 23/16 A301 RMK A01 T02310160  RH  064%=      5-min Rain = 0
KBR1 120909Z 01010KT 23/16 A301 RMK A01 T02310161  RH  065%=      5-min Rain = 0
KBR1 120910Z 01011KT 23/16 A301 RMK A01 T02310161  RH  065%=      5-min Rain = 0
KBR1 120911Z 01010KT 23/16 A301 RMK A01 T02300161  RH  065%=      5-min Rain = 0
KBR1 120912Z 01011KT 23/16 A301 RMK A01 T02300161  RH  065%=      5-min Rain = 0
KBR1 120913Z 02011KT 23/16 A301 RMK A01 T02290161  RH  065%=      5-min Rain = 0
KBR1 120914Z 01011KT 23/16 A301 RMK A01 T02280161  RH  066%=      5-min Rain = 0
KBR1 120915Z 02011KT 23/16 A301 RMK A01 T02280161  RH  066%=      5-min Rain = 0
KBR1 120916Z 02010KT 23/16 A301 RMK A01 T02280162  RH  066%=      5-min Rain = 0
KBR1 120917Z 01010KT 23/16 A301 RMK A01 T02280162  RH  066%=      5-min Rain = 0
KBR1 120918Z 01011KT 23/16 A301 RMK A01 T02280162  RH  066%=      5-min Rain = 0
KBR1 120919Z 02011KT 23/16 A301 RMK A01 T02280163  RH  067%=      5-min Rain = 0
KBR1 120920Z 02011KT 23/16 A301 RMK A01 T02290164  RH  067%=      5-min Rain = 0
KBR1 120921Z 03012KT 23/16 A3011 RMK A01 T02280164  RH  067%=      5-min Rain = 0
KBR1 120922Z 03012KT 23/16 A3011 RMK A01 T02280164  RH  067%=      5-min Rain = 0
KBR1 120923Z 02011KT 23/17 A3011 RMK A01 T02290165  RH  067%=      5-min Rain = 0
KBR1 120924Z 02012KT 23/17 A3011 RMK A01 T02290165  RH  067%=      5-min Rain = 0
KBR1 120925Z 02010KT 23/17 A3011 RMK A01 T02290166  RH  067%=      5-min Rain = 0
KBR1 120926Z 02011KT 23/17 A3011 RMK A01 T02290165  RH  068%=      5-min Rain = 0
KBR1 120927Z 02011KT 23/17 A3011 RMK A01 T02280166  RH  068%=      5-min Rain = 0
KBR1 120928Z 02010KT 23/17 A3011 RMK A01 T02280166  RH  068%=      5-min Rain = 0
KBR1 120929Z 03009KT 23/17 A3011 RMK A01 T02280167  RH  068%=      5-min Rain = 0
KBR1 120930Z 03010KT 23/17 A3011 RMK A01 T02270167  RH  069%=      5-min Rain = 0
KBR1 120931Z 03011KT 23/17 A3011 RMK A01 T02270167  RH  069%=      5-min Rain = 0
KBR1 120932Z 02011KT 23/17 A3011 RMK A01 T02270167  RH  069%=      5-min Rain = 0
KBR1 120933Z 03012KT 23/17 A3011 RMK A01 T02270168  RH  069%=      5-min Rain = 0
KBR1 120934Z 03010KT 23/17 A3011 RMK A01 T02270168  RH  069%=      5-min Rain = 0
KBR1 120935Z 03010KT 23/17 A3011 RMK A01 T02270168  RH  070%=      5-min Rain = 0
KBR1 120936Z 03010KT 23/17 A3011 RMK A01 T02270169  RH  070%=      5-min Rain = 0
KBR1 120937Z 03010KT 23/17 A3011 RMK A01 T02260169  RH  070%=      5-min Rain = 0
KBR1 120938Z 03011KT 23/17 A3011 RMK A01 T02260170  RH  070%=      5-min Rain = 0
KBR1 120939Z 03012KT 23/17 A3011 RMK A01 T02260170  RH  071%=      5-min Rain = 0
KBR1 120940Z 03012KT 23/17 A3011 RMK A01 T02260171  RH  071%=      5-min Rain = 0
KBR1 120941Z 03011KT 23/17 A3011 RMK A01 T02270172  RH  071%=      5-min Rain = 0
KBR1 120942Z 03012KT 23/17 A3011 RMK A01 T02270172  RH  071%=      5-min Rain = 0
KBR1 120943Z 03010KT 23/17 A3011 RMK A01 T02260172  RH  071%=      5-min Rain = 0
KBR1 120944Z 03012KT 23/17 A3011 RMK A01 T02260172  RH  071%=      5-min Rain = 0
KBR1 120945Z 02012KT 23/17 A3011 RMK A01 T02260172  RH  072%=      5-min Rain = 0
KBR1 120946Z 03011KT 23/17 A3011 RMK A01 T02260173  RH  072%=      5-min Rain = 0
KBR1 120947Z 03012KT 23/17 A3011 RMK A01 T02260173  RH  072%=      5-min Rain = 0
KBR1 120948Z 03013KT 23/17 A3011 RMK A01 T02250173  RH  072%=      5-min Rain = 0
KBR1 120949Z 03012KT 23/17 A3011 RMK A01 T02250173  RH  072%=      5-min Rain = 0
KBR1 120950Z 04013KT 23/17 A3011 RMK A01 T02250173  RH  073%=      5-min Rain = 0
KBR1 120951Z 04013KT 23/17 A3011 RMK A01 T02250174  RH  073%=      5-min Rain = 0
KBR1 120952Z 04013KT 23/17 A3011 RMK A01 T02250174  RH  073%=      5-min Rain = 0
KBR1 120953Z 04014KT 22/18 A3011 RMK A01 T02240175  RH  073%=      5-min Rain = 0
KBR1 120954Z 04013KT 22/18 A3011 RMK A01 T02240175  RH  074%=      5-min Rain = 0
KBR1 120955Z 04013KT 22/18 A3011 RMK A01 T02240175  RH  074%=      5-min Rain = 0
KBR1 120956Z 04013KT 22/18 A3011 RMK A01 T02240175  RH  074%=      5-min Rain = 0
KBR1 120957Z 04012KT 22/18 A3011 RMK A01 T02240175  RH  074%=      5-min Rain = 0
KBR1 120958Z 04012KT 22/18 A3011 RMK A01 T02240176  RH  074%=      5-min Rain = 0
KBR1 120959Z 04013KT 22/18 A3011 RMK A01 T02230176  RH  074%=      5-min Rain = 0
KBR1 121000Z 03014KT 22/18 A3011 RMK A01 T02230176  RH  075%=      5-min Rain = 0
KBR1 121001Z 03013KT 22/18 A3011 RMK A01 T02230177  RH  075%=      5-min Rain = 0
KBR1 121002Z 03013KT 22/18 A3011 RMK A01 T02230177  RH  075%=      5-min Rain = 0
KBR1 121003Z 03013KT 22/18 A3011 RMK A01 T02230177  RH  075%=      5-min Rain = 0
KBR1 121004Z 04013KT 22/18 A3011 RMK A01 T02230177  RH  075%=      5-min Rain = 0
KBR1 121005Z 04013KT 22/18 A3011 RMK A01 T02230178  RH  075%=      5-min Rain = 0
KBR1 121006Z 03013KT 22/18 A3011 RMK A01 T02230178  RH  076%=      5-min Rain = 0
KBR1 121007Z 03014KT 22/18 A3011 RMK A01 T02220177  RH  076%=      5-min Rain = 0
KBR1 121008Z 03012KT 22/18 A3011 RMK A01 T02220178  RH  076%=      5-min Rain = 0
KBR1 121009Z 03013KT 22/18 A3011 RMK A01 T02220178  RH  076%=      5-min Rain = 0
KBR1 121010Z 03013KT 22/18 A3011 RMK A01 T02210178  RH  076%=      5-min Rain = 0
KBR1 121011Z 03012KT 22/18 A3011 RMK A01 T02210178  RH  076%=      5-min Rain = 0
KBR1 121012Z 03012KT 22/18 A3011 RMK A01 T02210178  RH  077%=      5-min Rain = 0
KBR1 121013Z 04012KT 22/18 A3011 RMK A01 T02210178  RH  077%=      5-min Rain = 0
KBR1 121014Z 04013KT 22/18 A3011 RMK A01 T02200179  RH  077%=      5-min Rain = 0
KBR1 121015Z 04012KT 22/18 A3011 RMK A01 T02200179  RH  077%=      5-min Rain = 0
KBR1 121016Z 04012KT 22/18 A3011 RMK A01 T02200179  RH  078%=      5-min Rain = 0
KBR1 121017Z 04012KT 22/18 A3011 RMK A01 T02200179  RH  078%=      5-min Rain = 0
KBR1 121018Z 04012KT 22/18 A3011 RMK A01 T02200180  RH  078%=      5-min Rain = 0
KBR1 121019Z 04012KT 22/18 A3011 RMK A01 T02200180  RH  078%=      5-min Rain = 0
KBR1 121020Z 04011KT 22/18 A3011 RMK A01 T02200180  RH  078%=      5-min Rain = 0
KBR1 121021Z 04013KT 22/18 A3011 RMK A01 T02200181  RH  078%=      5-min Rain = 0
KBR1 121022Z 04012KT 22/18 A3011 RMK A01 T02200181  RH  079%=      5-min Rain = 0
KBR1 121023Z 04012KT 22/18 A3011 RMK A01 T02200181  RH  079%=      5-min Rain = 0
KBR1 121024Z 04014KT 22/18 A3011 RMK A01 T02200182  RH  079%=      5-min Rain = 0
KBR1 121025Z 04013KT 22/18 A3011 RMK A01 T02200182  RH  079%=      5-min Rain = 0
KBR1 121026Z 04012KT 22/18 A3011 RMK A01 T02200182  RH  079%=      5-min Rain = 0
KBR1 121027Z 04012KT 22/18 A3011 RMK A01 T02190183  RH  080%=      5-min Rain = 0
KBR1 121028Z 04012KT 22/18 A3011 RMK A01 T02190183  RH  080%=      5-min Rain = 0
KBR1 121029Z 04013KT 22/18 A3011 RMK A01 T02190183  RH  080%=      5-min Rain = 0
KBR1 121030Z 04013KT 22/18 A3011 RMK A01 T02180183  RH  080%=      5-min Rain = 0
KBR1 121031Z 04013KT 22/18 A3011 RMK A01 T02190183  RH  080%=      5-min Rain = 0
KBR1 121032Z 04013KT 22/18 A3011 RMK A01 T02180183  RH  081%=      5-min Rain = 0
KBR1 121033Z 04013KT 22/18 A3011 RMK A01 T02180184  RH  081%=      5-min Rain = 0
KBR1 121034Z 04012KT 22/18 A3011 RMK A01 T02180184  RH  081%=      5-min Rain = 0
KBR1 121035Z 03013KT 22/19 A3011 RMK A01 T02180185  RH  081%=      5-min Rain = 0
KBR1 121036Z 03012KT 22/19 A3011 RMK A01 T02180185  RH  081%=      5-min Rain = 0
KBR1 121037Z 03012KT 22/19 A3011 RMK A01 T02180185  RH  082%=      5-min Rain = 0
KBR1 121038Z 04013KT 22/19 A3011 RMK A01 T02180186  RH  082%=      5-min Rain = 0
KBR1 121039Z 04013KT 22/19 A3011 RMK A01 T02180186  RH  082%=      5-min Rain = 0
KBR1 121040Z 04013KT 22/19 A3011 RMK A01 T02170186  RH  082%=      5-min Rain = 0
KBR1 121041Z 04013KT 22/19 A3011 RMK A01 T02170187  RH  083%=      5-min Rain = 0
KBR1 121042Z 04012KT 22/19 A3011 RMK A01 T02180187  RH  083%=      5-min Rain = 0
KBR1 121043Z 04013KT 22/19 A3011 RMK A01 T02170187  RH  083%=      5-min Rain = 0
KBR1 121044Z 04013KT 22/19 A3011 RMK A01 T02170188  RH  083%=      5-min Rain = 0
KBR1 121045Z 04012KT 22/19 A3011 RMK A01 T02170188  RH  083%=      5-min Rain = 0
KBR1 121046Z 04012KT 22/19 A3011 RMK A01 T02180189  RH  084%=      5-min Rain = 0
KBR1 121047Z 04013KT 22/19 A3011 RMK A01 T02170189  RH  084%=      5-min Rain = 0
KBR1 121048Z 04013KT 22/19 A3011 RMK A01 T02170189  RH  084%=      5-min Rain = 0
KBR1 121049Z 04013KT 22/19 A3011 RMK A01 T02170189  RH  084%=      5-min Rain = 0
KBR1 121050Z 04011KT 22/19 A3011 RMK A01 T02170189  RH  084%=      5-min Rain = 0
KBR1 121051Z 04012KT 22/19 A3011 RMK A01 T02170190  RH  084%=      5-min Rain = 0
KBR1 121052Z 04012KT 22/19 A3011 RMK A01 T02170190  RH  085%=      5-min Rain = 0
KBR1 121053Z 04012KT 22/19 A3011 RMK A01 T02170190  RH  085%=      5-min Rain = 0
KBR1 121054Z 04012KT 22/19 A3011 RMK A01 T02170190  RH  085%=      5-min Rain = 0
KBR1 121055Z 04013KT 22/19 A3011 RMK A01 T02170191  RH  085%=      5-min Rain = 0
KBR1 121056Z 04012KT 22/19 A3011 RMK A01 T02170191  RH  085%=      5-min Rain = 0
KBR1 121057Z 04012KT 22/19 A3011 RMK A01 T02160191  RH  085%=      5-min Rain = 0
KBR1 121058Z 04012KT 22/19 A3012 RMK A01 T02160191  RH  085%=      5-min Rain = 0
KBR1 121059Z 04012KT 22/19 A3012 RMK A01 T02160191  RH  086%=      5-min Rain = 0
KBR1 121100Z 04013KT 22/19 A3012 RMK A01 T02160191  RH  086%=      5-min Rain = 0
KBR1 121101Z 04013KT 22/19 A3012 RMK A01 T02160191  RH  086%=      5-min Rain = 0
KBR1 121102Z 04013KT 22/19 A3012 RMK A01 T02160192  RH  086%=      5-min Rain = 0
KBR1 121103Z 04012KT 22/19 A3012 RMK A01 T02160192  RH  086%=      5-min Rain = 0
KBR1 121104Z 04013KT 22/19 A3012 RMK A01 T02160192  RH  086%=      5-min Rain = 0
KBR1 121105Z 04014KT 22/19 A3012 RMK A01 T02150192  RH  087%=      5-min Rain = 0
KBR1 121106Z 04013KT 22/19 A3012 RMK A01 T02160193  RH  087%=      5-min Rain = 0
KBR1 121107Z 04014KT 22/19 A3012 RMK A01 T02160193  RH  087%=      5-min Rain = 0
KBR1 121108Z 04014KT 22/19 A3012 RMK A01 T02150193  RH  087%=      5-min Rain = 0
KBR1 121109Z 04014KT 22/19 A3012 RMK A01 T02160194  RH  088%=      5-min Rain = 0
KBR1 121110Z 04013KT 22/20 A3012 RMK A01 T02160195  RH  088%=      5-min Rain = 0
KBR1 121111Z 04014KT 22/20 A3012 RMK A01 T02160195  RH  088%=      5-min Rain = 0
KBR1 121112Z 04014KT 22/20 A3012 RMK A01 T02150195  RH  088%=      5-min Rain = 0
KBR1 121113Z 04015KT 22/20 A3012 RMK A01 T02160197  RH  089%=      5-min Rain = 0
KBR1 121114Z 04015KT 22/20 A3012 RMK A01 T02160197  RH  089%=      5-min Rain = 0
KBR1 121115Z 04014KT 22/20 A3012 RMK A01 T02160197  RH  089%=      5-min Rain = 0
KBR1 121116Z 04014KT 22/20 A3012 RMK A01 T02160197  RH  089%=      5-min Rain = 0
KBR1 121117Z 05015KT 22/20 A3012 RMK A01 T02160198  RH  089%=      5-min Rain = 0
KBR1 121118Z 05014KT 22/20 A3012 RMK A01 T02170198  RH  089%=      5-min Rain = 0
KBR1 121119Z 05014KT 22/20 A3012 RMK A01 T02170198  RH  089%=      5-min Rain = 0
KBR1 121120Z 05014KT 22/20 A3012 RMK A01 T02160198  RH  089%=      5-min Rain = 0
KBR1 121121Z 05013KT 22/20 A3011 RMK A01 T02160198  RH  090%=      5-min Rain = 0
KBR1 121122Z 05012KT 22/20 A3011 RMK A01 T02160198  RH  090%=      5-min Rain = 0
KBR1 121123Z 05014KT 22/20 A3011 RMK A01 T02150198  RH  090%=      5-min Rain = 0
KBR1 121124Z 05013KT 22/20 A3011 RMK A01 T02160199  RH  090%=      5-min Rain = 0
KBR1 121125Z 05013KT 22/20 A3012 RMK A01 T02150198  RH  090%=      5-min Rain = 0
KBR1 121126Z 05012KT 22/20 A3012 RMK A01 T02150199  RH  090%=      5-min Rain = 0
KBR1 121127Z 05012KT 22/20 A3012 RMK A01 T02150199  RH  090%=      5-min Rain = 0
KBR1 121128Z 05012KT 22/20 A3012 RMK A01 T02150199  RH  090%=      5-min Rain = 0
KBR1 121129Z 04012KT 21/20 A3012 RMK A01 T02140199  RH  091%=      5-min Rain = 0
KBR1 121130Z 04012KT 22/20 A3012 RMK A01 T02150199  RH  091%=      5-min Rain = 0
KBR1 121131Z 04012KT 22/20 A3012 RMK A01 T02150199  RH  091%=      5-min Rain = 0
KBR1 121132Z 04012KT 21/20 A3013 RMK A01 T02140199  RH  091%=      5-min Rain = 0
KBR1 121133Z 04012KT 21/20 A3013 RMK A01 T02140199  RH  091%=      5-min Rain = 0
KBR1 121134Z 04011KT 21/20 A3013 RMK A01 T02140199  RH  091%=      5-min Rain = 0
KBR1 121135Z 04011KT 21/20 A3013 RMK A01 T02140198  RH  091%=      5-min Rain = 0
KBR1 121136Z 04012KT 21/20 A3013 RMK A01 T02130198  RH  091%=      5-min Rain = 0
KBR1 121137Z 04011KT 21/20 A3013 RMK A01 T02140199  RH  091%=      5-min Rain = 0
KBR1 121138Z 04010KT 21/20 A3013 RMK A01 T02140199  RH  091%=      5-min Rain = 0
KBR1 121139Z 04010KT 21/20 A3013 RMK A01 T02130199  RH  091%=      5-min Rain = 0
KBR1 121140Z 04011KT 21/20 A3013 RMK A01 T02130199  RH  091%=      5-min Rain = 0
KBR1 121141Z 04011KT 21/20 A3013 RMK A01 T02130199  RH  091%=      5-min Rain = 0
KBR1 121142Z 04012KT 21/20 A3013 RMK A01 T02130199  RH  092%=      5-min Rain = 0
KBR1 121143Z 04012KT 21/20 A3013 RMK A01 T02130199  RH  092%=      5-min Rain = 0
KBR1 121144Z 04011KT 21/20 A3013 RMK A01 T02130199  RH  092%=      5-min Rain = 0
KBR1 121145Z 04012KT 21/20 A3013 RMK A01 T02130199  RH  092%=      5-min Rain = 0
KBR1 121146Z 04011KT 21/20 A3013 RMK A01 T02130199  RH  092%=      5-min Rain = 0
KBR1 121147Z 04011KT 21/20 A3013 RMK A01 T02130200  RH  092%=      5-min Rain = 0
KBR1 121148Z 04011KT 21/20 A3013 RMK A01 T02130200  RH  092%=      5-min Rain = 0
KBR1 121149Z 04010KT 21/20 A3013 RMK A01 T02130200  RH  092%=      5-min Rain = 0
KBR1 121150Z 04011KT 21/20 A3013 RMK A01 T02140200  RH  092%=      5-min Rain = 0
KBR1 121151Z 05010KT 21/20 A3013 RMK A01 T02140201  RH  092%=      5-min Rain = 0
KBR1 121152Z 05010KT 21/20 A3013 RMK A01 T02140201  RH  092%=      5-min Rain = 0
KBR1 121153Z 05011KT 22/20 A3013 RMK A01 T02150201  RH  092%=      5-min Rain = 0
KBR1 121154Z 05011KT 22/20 A3013 RMK A01 T02150201  RH  092%=      5-min Rain = 0
KBR1 121155Z 05011KT 22/20 A3013 RMK A01 T02160202  RH  092%=      5-min Rain = 0
KBR1 121156Z 05012KT 22/20 A3013 RMK A01 T02160202  RH  092%=      5-min Rain = 0
KBR1 121157Z 05010KT 22/20 A3013 RMK A01 T02160203  RH  092%=      5-min Rain = 0
KBR1 121158Z 05011KT 22/20 A3013 RMK A01 T02170203  RH  092%=      5-min Rain = 0
KBR1 121159Z 05012KT 22/20 A3013 RMK A01 T02170203  RH  092%=      5-min Rain = 0
KBR1 121200Z 05012KT 22/20 A3013 RMK A01 T02180204  RH  092%=      5-min Rain = 0
KBR1 121201Z 05012KT 22/20 A3013 RMK A01 T02180204  RH  092%=      5-min Rain = 0
KBR1 121202Z 05012KT 22/20 A3013 RMK A01 T02180204  RH  091%=      5-min Rain = 0
KBR1 121203Z 05011KT 22/21 A3013 RMK A01 T02190205  RH  091%=      5-min Rain = 0
KBR1 121204Z 05011KT 22/21 A3013 RMK A01 T02200205  RH  091%=      5-min Rain = 0
KBR1 121205Z 05010KT 22/21 A3013 RMK A01 T02200205  RH  091%=      5-min Rain = 0
KBR1 121206Z 05012KT 22/21 A3013 RMK A01 T02200205  RH  091%=      5-min Rain = 0
KBR1 121207Z 05014KT 22/21 A3013 RMK A01 T02200205  RH  091%=      5-min Rain = 0
KBR1 121208Z 05012KT 22/21 A3013 RMK A01 T02210206  RH  091%=      5-min Rain = 0
KBR1 121209Z 05012KT 22/21 A3013 RMK A01 T02200205  RH  091%=      5-min Rain = 0
KBR1 121210Z 06011KT 22/21 A3013 RMK A01 T02210206  RH  091%=      5-min Rain = 0
KBR1 121211Z 06012KT 22/21 A3013 RMK A01 T02210206  RH  091%=      5-min Rain = 0
KBR1 121212Z 06012KT 22/21 A3013 RMK A01 T02210206  RH  091%=      5-min Rain = 0
KBR1 121213Z 06011KT 22/21 A3013 RMK A01 T02210206  RH  091%=      5-min Rain = 0
KBR1 121214Z 06012KT 22/21 A3013 RMK A01 T02220206  RH  091%=      5-min Rain = 0
KBR1 121215Z 06011KT 22/21 A3013 RMK A01 T02220206  RH  091%=      5-min Rain = 0
KBR1 121216Z 06012KT 22/21 A3012 RMK A01 T02220207  RH  091%=      5-min Rain = 0
KBR1 121217Z 06011KT 22/21 A3012 RMK A01 T02220207  RH  091%=      5-min Rain = 0
KBR1 121218Z 06011KT 22/21 A3012 RMK A01 T02230207  RH  091%=      5-min Rain = 0
KBR1 121219Z 06011KT 22/21 A3012 RMK A01 T02230207  RH  091%=      5-min Rain = 0
KBR1 121220Z 06011KT 22/21 A3012 RMK A01 T02230207  RH  091%=      5-min Rain = 0
KBR1 121221Z 06012KT 22/21 A3012 RMK A01 T02230207  RH  091%=      5-min Rain = 0
KBR1 121222Z 06012KT 22/21 A3012 RMK A01 T02240208  RH  091%=      5-min Rain = 0
KBR1 121223Z 06011KT 22/21 A3012 RMK A01 T02240208  RH  091%=      5-min Rain = 0
KBR1 121224Z 06011KT 22/21 A3012 RMK A01 T02240208  RH  091%=      5-min Rain = 0
KBR1 121225Z 06011KT 22/21 A3012 RMK A01 T02240208  RH  091%=      5-min Rain = 0
KBR1 121226Z 06012KT 22/21 A3012 RMK A01 T02240208  RH  091%=      5-min Rain = 0
KBR1 121227Z 06011KT 22/21 A3012 RMK A01 T02240208  RH  091%=      5-min Rain = 0
KBR1 121228Z 06012KT 23/21 A3012 RMK A01 T02250209  RH  091%=      5-min Rain = 0
KBR1 121229Z 06013KT 23/21 A3012 RMK A01 T02250208  RH  091%=      5-min Rain = 0
KBR1 121230Z 07013KT 23/21 A3012 RMK A01 T02250209  RH  091%=      5-min Rain = 0
KBR1 121231Z 07012KT 23/21 A3012 RMK A01 T02250209  RH  091%=      5-min Rain = 0
KBR1 121232Z 06012KT 23/21 A3012 RMK A01 T02250209  RH  090%=      5-min Rain = 0
KBR1 121233Z 06013KT 23/21 A3012 RMK A01 T02250209  RH  090%=      5-min Rain = 0
KBR1 121234Z 06013KT 23/21 A3012 RMK A01 T02260209  RH  090%=      5-min Rain = 0
KBR1 121235Z 06014KT 23/21 A3012 RMK A01 T02260209  RH  090%=      5-min Rain = 0
KBR1 121236Z 06013KT 23/21 A3012 RMK A01 T02260209  RH  090%=      5-min Rain = 0
KBR1 121237Z 06014KT 23/21 A3012 RMK A01 T02260209  RH  090%=      5-min Rain = 0
KBR1 121238Z 06012KT 23/21 A3012 RMK A01 T02260209  RH  090%=      5-min Rain = 0
KBR1 121239Z 06012KT 23/21 A3012 RMK A01 T02270210  RH  090%=      5-min Rain = 0
KBR1 121240Z 06012KT 23/21 A3012 RMK A01 T02270209  RH  090%=      5-min Rain = 0
KBR1 121241Z 06011KT 23/21 A3012 RMK A01 T02270210  RH  090%=      5-min Rain = 0
KBR1 121242Z 07010KT 23/21 A3013 RMK A01 T02280210  RH  090%=      5-min Rain = 0
KBR1 121243Z 06014KT 23/21 A3013 RMK A01 T02280210  RH  089%=      5-min Rain = 0
KBR1 121244Z 06014KT 23/21 A3013 RMK A01 T02280210  RH  089%=      5-min Rain = 0
KBR1 121245Z 06015KT 23/21 A3013 RMK A01 T02280209  RH  089%=      5-min Rain = 0
KBR1 121246Z 06013KT 23/21 A3012 RMK A01 T02290210  RH  089%=      5-min Rain = 0
KBR1 121247Z 07011KT 23/21 A3012 RMK A01 T02290210  RH  089%=      5-min Rain = 0
KBR1 121248Z 07013KT 23/21 A3012 RMK A01 T02290210  RH  089%=      5-min Rain = 0
KBR1 121249Z 07016KT 23/21 A3012 RMK A01 T02290210  RH  089%=      5-min Rain = 0
KBR1 121250Z 07015KT 23/21 A3012 RMK A01 T02290210  RH  089%=      5-min Rain = 0
KBR1 121251Z 07015KT 23/21 A3012 RMK A01 T02290210  RH  089%=      5-min Rain = 0
KBR1 121252Z 07015KT 23/21 A3012 RMK A01 T02290210  RH  089%=      5-min Rain = 0
KBR1 121253Z 06013KT 23/21 A3012 RMK A01 T02300210  RH  089%=      5-min Rain = 0
KBR1 121254Z 07013KT 23/21 A3012 RMK A01 T02300210  RH  089%=      5-min Rain = 0
KBR1 121255Z 07013KT 23/21 A3013 RMK A01 T02300210  RH  088%=      5-min Rain = 0
KBR1 121256Z 07014KT 23/21 A3013 RMK A01 T02300209  RH  088%=      5-min Rain = 0
KBR1 121257Z 07015KT 23/21 A3013 RMK A01 T02300210  RH  088%=      5-min Rain = 0
KBR1 121258Z 06013KT 23/21 A3013 RMK A01 T02300210  RH  088%=      5-min Rain = 0
KBR1 121259Z 06013KT 23/21 A3013 RMK A01 T02300210  RH  088%=      5-min Rain = 0
KBR1 121300Z 06012KT 23/21 A3014 RMK A01 T02300209  RH  088%=      5-min Rain = 0
KBR1 121301Z 06013KT 23/21 A3014 RMK A01 T02310209  RH  088%=      5-min Rain = 0
KBR1 121302Z 06012KT 23/21 A3014 RMK A01 T02320209  RH  087%=      5-min Rain = 0
KBR1 121303Z 07011KT 23/21 A3014 RMK A01 T02320209  RH  087%=      5-min Rain = 0
KBR1 121304Z 07011KT 23/21 A3014 RMK A01 T02320209  RH  087%=      5-min Rain = 0
KBR1 121305Z 07012KT 23/21 A3014 RMK A01 T02320209  RH  087%=      5-min Rain = 0
KBR1 121306Z 07013KT 23/21 A3014 RMK A01 T02330209  RH  086%=      5-min Rain = 0
KBR1 121307Z 08012KT 23/21 A3014 RMK A01 T02320207  RH  086%=      5-min Rain = 0
KBR1 121308Z 06013KT 23/21 A3014 RMK A01 T02320209  RH  086%=      5-min Rain = 0
KBR1 121309Z 06012KT 23/21 A3014 RMK A01 T02320209  RH  087%=      5-min Rain = 0
KBR1 121310Z 06013KT 23/21 A3014 RMK A01 T02330209  RH  086%=      5-min Rain = 0
KBR1 121311Z 06013KT 23/21 A3014 RMK A01 T02330207  RH  085%=      5-min Rain = 0
KBR1 121312Z 07013KT 23/21 A3014 RMK A01 T02320207  RH  086%=      5-min Rain = 0
KBR1 121313Z 07011KT 23/21 A3014 RMK A01 T02320207  RH  086%=      5-min Rain = 0
KBR1 121314Z 06011KT 23/21 A3014 RMK A01 T02330207  RH  086%=      5-min Rain = 0
KBR1 121315Z 06011KT 23/21 A3014 RMK A01 T02340208  RH  085%=      5-min Rain = 0
KBR1 121316Z 06011KT 23/21 A3014 RMK A01 T02340208  RH  085%=      5-min Rain = 0
KBR1 121317Z 06011KT 23/21 A3014 RMK A01 T02340208  RH  085%=      5-min Rain = 0
KBR1 121318Z 06010KT 23/21 A3014 RMK A01 T02330208  RH  086%=      5-min Rain = 0
KBR1 121319Z 06010G15KT 23/21 A3014 RMK A01 T02340209  RH  086%=      5-min Rain = 0
KBR1 121320Z 06012KT 23/21 A3014 RMK A01 T02330206  RH  085%=      5-min Rain = 0
KBR1 121321Z 07011KT 23/21 A3014 RMK A01 T02330205  RH  084%=      5-min Rain = 0
KBR1 121322Z 06009KT 23/21 A3014 RMK A01 T02330206  RH  085%=      5-min Rain = 0
KBR1 121323Z 06011KT 23/21 A3014 RMK A01 T02340207  RH  085%=      5-min Rain = 0
KBR1 121324Z 05009KT 23/21 A3014 RMK A01 T02340205  RH  084%=      5-min Rain = 0
KBR1 121325Z 06010KT 23/20 A3014 RMK A01 T02340204  RH  083%=      5-min Rain = 0
KBR1 121326Z 05008KT 23/21 A3014 RMK A01 T02340206  RH  084%=      5-min Rain = 0
KBR1 121327Z 04009KT 24/21 A3014 RMK A01 T02350206  RH  084%=      5-min Rain = 0
KBR1 121328Z 04010KT 24/21 A3014 RMK A01 T02360205  RH  083%=      5-min Rain = 0
KBR1 121329Z 05011KT 24/21 A3014 RMK A01 T02360205  RH  083%=      5-min Rain = 0
KBR1 121330Z 04011KT 24/21 A3014 RMK A01 T02350205  RH  083%=      5-min Rain = 0
KBR1 121331Z 04012KT 24/20 A3014 RMK A01 T02350204  RH  083%=      5-min Rain = 0
KBR1 121332Z 04012KT 24/20 A3014 RMK A01 T02350204  RH  083%=      5-min Rain = 0
KBR1 121333Z 05009KT 23/20 A3014 RMK A01 T02340204  RH  083%=      5-min Rain = 0
KBR1 121334Z 06011KT 23/20 A3014 RMK A01 T02340203  RH  083%=      5-min Rain = 0
KBR1 121335Z 06010KT 24/20 A3014 RMK A01 T02350202  RH  082%=      5-min Rain = 0
KBR1 121336Z 06010KT 24/20 A3014 RMK A01 T02350202  RH  082%=      5-min Rain = 0
KBR1 121337Z 07012KT 24/20 A3014 RMK A01 T02360203  RH  082%=      5-min Rain = 0
KBR1 121338Z 07011KT 24/20 A3014 RMK A01 T02350202  RH  082%=      5-min Rain = 0
KBR1 121339Z 07012KT 24/20 A3014 RMK A01 T02350203  RH  082%=      5-min Rain = 0
KBR1 121340Z 08012KT 24/20 A3014 RMK A01 T02350203  RH  082%=      5-min Rain = 0
KBR1 121341Z 07011KT 24/20 A3014 RMK A01 T02350202  RH  082%=      5-min Rain = 0
KBR1 121342Z 06010KT 24/20 A3014 RMK A01 T02350203  RH  082%=      5-min Rain = 0
KBR1 121343Z 06011KT 24/20 A3014 RMK A01 T02370203  RH  081%=      5-min Rain = 0
KBR1 121344Z 07010KT 24/20 A3014 RMK A01 T02360202  RH  081%=      5-min Rain = 0
KBR1 121345Z 06009KT 24/20 A3014 RMK A01 T02360202  RH  081%=      5-min Rain = 0
KBR1 121346Z 06008KT 24/20 A3014 RMK A01 T02360203  RH  082%=      5-min Rain = 0
KBR1 121347Z 05008KT 24/20 A3014 RMK A01 T02370204  RH  082%=      5-min Rain = 0
KBR1 121348Z 06011KT 24/20 A3014 RMK A01 T02380204  RH  081%=      5-min Rain = 0
KBR1 121349Z 06011KT 24/20 A3014 RMK A01 T02380204  RH  081%=      5-min Rain = 0
KBR1 121350Z 06012KT 24/20 A3014 RMK A01 T02370203  RH  081%=      5-min Rain = 0
KBR1 121351Z 06011KT 24/20 A3014 RMK A01 T02360202  RH  081%=      5-min Rain = 0
KBR1 121352Z 07012KT 24/20 A3015 RMK A01 T02360202  RH  081%=      5-min Rain = 0
KBR1 121353Z 07011KT 24/20 A3015 RMK A01 T02360202  RH  081%=      5-min Rain = 0
KBR1 121354Z 07012KT 24/20 A3015 RMK A01 T02380203  RH  081%=      5-min Rain = 0
KBR1 121355Z 07012KT 24/20 A3014 RMK A01 T02380202  RH  080%=      5-min Rain = 0
KBR1 121356Z 08013KT 24/20 A3014 RMK A01 T02380201  RH  080%=      5-min Rain = 0
KBR1 121357Z 08012KT 24/20 A3014 RMK A01 T02370201  RH  080%=      5-min Rain = 0
KBR1 121358Z 08011KT 24/20 A3014 RMK A01 T02380202  RH  081%=      5-min Rain = 0
KBR1 121359Z 07014KT 24/20 A3014 RMK A01 T02400202  RH  079%=      5-min Rain = 0
KBR1 121400Z 07014KT 24/20 A3014 RMK A01 T02390201  RH  079%=      5-min Rain = 0
KBR1 121401Z 07013KT 24/20 A3014 RMK A01 T02380201  RH  080%=      5-min Rain = 0
KBR1 121402Z 06012KT 24/20 A3014 RMK A01 T02380202  RH  080%=      5-min Rain = 0
KBR1 121403Z 06012KT 24/20 A3014 RMK A01 T02370202  RH  081%=      5-min Rain = 0
KBR1 121404Z 06012KT 24/20 A3014 RMK A01 T02370203  RH  081%=      5-min Rain = 0
KBR1 121405Z 06012KT 24/20 A3014 RMK A01 T02370201  RH  080%=      5-min Rain = 0
KBR1 121406Z 07011KT 24/20 A3015 RMK A01 T02370202  RH  081%=      5-min Rain = 0
KBR1 121407Z 08012KT 24/20 A3015 RMK A01 T02390202  RH  080%=      5-min Rain = 0
KBR1 121408Z 08012KT 24/20 A3015 RMK A01 T02400202  RH  079%=      5-min Rain = 0
KBR1 121409Z 08011KT 24/20 A3015 RMK A01 T02390202  RH  079%=      5-min Rain = 0
KBR1 121410Z 08013KT 24/20 A3015 RMK A01 T02400202  RH  079%=      5-min Rain = 0
KBR1 121411Z 08012KT 24/20 A3015 RMK A01 T02420202  RH  078%=      5-min Rain = 0
KBR1 121412Z 07012KT 24/20 A3015 RMK A01 T02420202  RH  078%=      5-min Rain = 0
KBR1 121413Z 07014KT 24/20 A3015 RMK A01 T02410201  RH  078%=      5-min Rain = 0
KBR1 121414Z 07012KT 24/20 A3015 RMK A01 T02400200  RH  078%=      5-min Rain = 0
KBR1 121415Z 06012KT 24/20 A3015 RMK A01 T02400200  RH  079%=      5-min Rain = 0
KBR1 121416Z 06012KT 24/20 A3015 RMK A01 T02390200  RH  079%=      5-min Rain = 0
KBR1 121417Z 06011KT 24/20 A3015 RMK A01 T02400201  RH  079%=      5-min Rain = 0
KBR1 121418Z 06013KT 24/20 A3015 RMK A01 T02430201  RH  078%=      5-min Rain = 0
KBR1 121419Z 07012KT 24/20 A3015 RMK A01 T02440201  RH  077%=      5-min Rain = 0
KBR1 121420Z 06011KT 25/20 A3015 RMK A01 T02460201  RH  076%=      5-min Rain = 0
KBR1 121421Z 07010KT 25/20 A3015 RMK A01 T02460200  RH  076%=      5-min Rain = 0
KBR1 121422Z 08010KT 25/20 A3015 RMK A01 T02460201  RH  076%=      5-min Rain = 0
KBR1 121423Z 06013KT 25/20 A3015 RMK A01 T02480201  RH  075%=      5-min Rain = 0
KBR1 121424Z 06012KT 25/20 A3015 RMK A01 T02470200  RH  075%=      5-min Rain = 0
KBR1 121425Z 06011KT 24/20 A3015 RMK A01 T02440198  RH  076%=      5-min Rain = 0
KBR1 121426Z 06010KT 24/20 A3015 RMK A01 T02430199  RH  076%=      5-min Rain = 0
KBR1 121427Z 06012KT 24/20 A3015 RMK A01 T02440199  RH  076%=      5-min Rain = 0
KBR1 121428Z 05011KT 25/20 A3015 RMK A01 T02450199  RH  076%=      5-min Rain = 0
KBR1 121429Z 05011KT 25/20 A3015 RMK A01 T02470200  RH  075%=      5-min Rain = 0
KBR1 121430Z 06012KT 25/20 A3015 RMK A01 T02480199  RH  074%=      5-min Rain = 0
KBR1 121431Z 06009KT 25/20 A3015 RMK A01 T02490200  RH  074%=      5-min Rain = 0
KBR1 121432Z 06010KT 25/20 A3015 RMK A01 T02510200  RH  073%=      5-min Rain = 0
KBR1 121433Z 05011KT 25/20 A3015 RMK A01 T02520200  RH  073%=      5-min Rain = 0
KBR1 121434Z 05011KT 25/20 A3015 RMK A01 T02510200  RH  073%=      5-min Rain = 0
KBR1 121435Z 06011KT 25/20 A3015 RMK A01 T02520201  RH  073%=      5-min Rain = 0
KBR1 121436Z 05012KT 25/20 A3015 RMK A01 T02520200  RH  073%=      5-min Rain = 0
KBR1 121437Z 04011KT 25/20 A3015 RMK A01 T02510200  RH  073%=      5-min Rain = 0
KBR1 121438Z 04010KT 25/20 A3015 RMK A01 T02500201  RH  074%=      5-min Rain = 0
KBR1 121439Z 06010KT 25/20 A3015 RMK A01 T02510202  RH  074%=      5-min Rain = 0
KBR1 121440Z 05012KT 25/20 A3015 RMK A01 T02530201  RH  073%=      5-min Rain = 0
KBR1 121441Z 05009KT 25/20 A3015 RMK A01 T02520202  RH  074%=      5-min Rain = 0
KBR1 121442Z 06011KT 25/20 A3015 RMK A01 T02510199  RH  073%=      5-min Rain = 0
KBR1 121443Z 05010KT 25/20 A3015 RMK A01 T02530195  RH  070%=      5-min Rain = 0
KBR1 121444Z 06009KT 25/20 A3015 RMK A01 T02530198  RH  072%=      5-min Rain = 0
KBR1 121445Z 05011KT 25/20 A3015 RMK A01 T02520200  RH  073%=      5-min Rain = 0
KBR1 121446Z 08012KT 25/20 A3015 RMK A01 T02530198  RH  071%=      5-min Rain = 0
KBR1 121447Z 07009KT 25/20 A3015 RMK A01 T02540196  RH  070%=      5-min Rain = 0
KBR1 121448Z 07010KT 25/20 A3015 RMK A01 T02540199  RH  072%=      5-min Rain = 0
KBR1 121449Z 08010KT 25/20 A3015 RMK A01 T02540200  RH  072%=      5-min Rain = 0
KBR1 121450Z 04009KT 26/20 A3015 RMK A01 T02560202  RH  072%=      5-min Rain = 0
KBR1 121451Z 05011KT 26/20 A3015 RMK A01 T02570201  RH  071%=      5-min Rain = 0
KBR1 121452Z 07010KT 26/20 A3015 RMK A01 T02570198  RH  070%=      5-min Rain = 0
KBR1 121453Z 06010KT 26/20 A3015 RMK A01 T02570199  RH  070%=      5-min Rain = 0
KBR1 121454Z 05011KT 26/20 A3015 RMK A01 T02570200  RH  071%=      5-min Rain = 0
KBR1 121455Z 05010KT 26/20 A3015 RMK A01 T02570200  RH  071%=      5-min Rain = 0
KBR1 121456Z 05009KT 26/20 A3015 RMK A01 T02560200  RH  071%=      5-min Rain = 0
KBR1 121457Z 05011KT 26/20 A3014 RMK A01 T02560199  RH  071%=      5-min Rain = 0
KBR1 121458Z 07012KT 26/20 A3015 RMK A01 T02570199  RH  070%=      5-min Rain = 0
KBR1 121459Z 07010KT 26/20 A3015 RMK A01 T02580199  RH  070%=      5-min Rain = 0
KBR1 121500Z 07011KT 26/20 A3015 RMK A01 T02580196  RH  069%=      5-min Rain = 0
KBR1 121501Z 06011KT 26/20 A3015 RMK A01 T02600198  RH  069%=      5-min Rain = 0
KBR1 121502Z 06009KT 26/20 A3015 RMK A01 T02610199  RH  069%=      5-min Rain = 0
KBR1 121503Z 07011KT 26/20 A3015 RMK A01 T02620198  RH  068%=      5-min Rain = 0
KBR1 121504Z 08011KT 26/20 A3015 RMK A01 T02620196  RH  067%=      5-min Rain = 0
KBR1 121505Z 08009KT 26/20 A3015 RMK A01 T02620197  RH  067%=      5-min Rain = 0
KBR1 121506Z 05009KT 26/20 A3015 RMK A01 T02630198  RH  067%=      5-min Rain = 0
KBR1 121507Z 06011G18KT 26/20 A3014 RMK A01 T02640198  RH  067%=      5-min Rain = 0
KBR1 121508Z 07014KT 27/20 A3014 RMK A01 T02650197  RH  066%=      5-min Rain = 0
KBR1 121509Z 07010KT 27/20 A3014 RMK A01 T02650196  RH  066%=      5-min Rain = 0
KBR1 121510Z 06010KT 26/20 A3014 RMK A01 T02640198  RH  067%=      5-min Rain = 0
KBR1 121511Z 06012KT 26/20 A3014 RMK A01 T02640198  RH  067%=      5-min Rain = 0
KBR1 121512Z 07011KT 26/20 A3014 RMK A01 T02640196  RH  066%=      5-min Rain = 0
KBR1 121513Z 07012KT 27/19 A3014 RMK A01 T02650194  RH  065%=      5-min Rain = 0
KBR1 121514Z 07008KT 26/19 A3014 RMK A01 T02640194  RH  066%=      5-min Rain = 0
KBR1 121515Z 06011KT 27/19 A3014 RMK A01 T02660194  RH  065%=      5-min Rain = 0
KBR1 121516Z 07010KT 26/20 A3014 RMK A01 T02640195  RH  066%=      5-min Rain = 0
KBR1 121517Z 06010KT 26/20 A3014 RMK A01 T02630197  RH  067%=      5-min Rain = 0
KBR1 121518Z 07011KT 26/20 A3014 RMK A01 T02630197  RH  067%=      5-min Rain = 0
KBR1 121519Z 06012KT 27/20 A3014 RMK A01 T02660195  RH  065%=      5-min Rain = 0
KBR1 121520Z 07010KT 27/19 A3014 RMK A01 T02660193  RH  064%=      5-min Rain = 0
KBR1 121521Z 06009KT 27/19 A3014 RMK A01 T02650192  RH  064%=      5-min Rain = 0
KBR1 121522Z 05010KT 27/19 A3014 RMK A01 T02660193  RH  064%=      5-min Rain = 0
KBR1 121523Z 07009KT 27/19 A3014 RMK A01 T02670194  RH  064%=      5-min Rain = 0
KBR1 121524Z 05008KT 27/19 A3014 RMK A01 T02680194  RH  064%=      5-min Rain = 0
KBR1 121525Z 04007KT 27/20 A3014 RMK A01 T02680195  RH  064%=      5-min Rain = 0
KBR1 121526Z 06009KT 27/20 A3014 RMK A01 T02670195  RH  064%=      5-min Rain = 0
KBR1 121527Z 07009KT 27/19 A3014 RMK A01 T02690191  RH  063%=      5-min Rain = 0
KBR1 121528Z 08012KT 27/19 A3014 RMK A01 T02690190  RH  062%=      5-min Rain = 0
KBR1 121529Z 07011KT 27/19 A3014 RMK A01 T02700187  RH  060%=      5-min Rain = 0
KBR1 121530Z 08008KT 27/19 A3014 RMK A01 T02690186  RH  060%=      5-min Rain = 0
KBR1 121531Z 07010KT 27/19 A3014 RMK A01 T02680188  RH  061%=      5-min Rain = 0
KBR1 121532Z 07011KT 27/19 A3013 RMK A01 T02680191  RH  063%=      5-min Rain = 0
KBR1 121533Z 06007KT 27/19 A3013 RMK A01 T02660190  RH  063%=      5-min Rain = 0
KBR1 121534Z 06005KT 27/19 A3013 RMK A01 T02660194  RH  064%=      5-min Rain = 0
KBR1 121535Z 05009KT 27/20 A3013 RMK A01 T02710195  RH  063%=      5-min Rain = 0
KBR1 121536Z 06009KT 27/19 A3013 RMK A01 T02720194  RH  063%=      5-min Rain = 0
KBR1 121537Z 06007KT 27/19 A3013 RMK A01 T02700194  RH  063%=      5-min Rain = 0
KBR1 121538Z 05008KT 27/19 A3013 RMK A01 T02690193  RH  063%=      5-min Rain = 0
KBR1 121539Z 05008KT 27/19 A3013 RMK A01 T02690193  RH  063%=      5-min Rain = 0
KBR1 121540Z 07009KT 27/19 A3013 RMK A01 T02720192  RH  062%=      5-min Rain = 0
KBR1 121541Z 07007KT 28/19 A3013 RMK A01 T02760193  RH  061%=      5-min Rain = 0
KBR1 121542Z 04007KT 28/19 A3013 RMK A01 T02770192  RH  060%=      5-min Rain = 0
KBR1 121543Z 05011KT 28/19 A3013 RMK A01 T02760191  RH  060%=      5-min Rain = 0
KBR1 121544Z 08010KT 27/19 A3013 RMK A01 T02740190  RH  060%=      5-min Rain = 0
KBR1 121545Z 06009KT 27/19 A3013 RMK A01 T02740191  RH  061%=      5-min Rain = 0
KBR1 121546Z 07010KT 27/19 A3013 RMK A01 T02710190  RH  061%=      5-min Rain = 0
KBR1 121547Z 08009KT 27/19 A3013 RMK A01 T02720188  RH  060%=      5-min Rain = 0
KBR1 121548Z 07007KT 27/19 A3013 RMK A01 T02730189  RH  060%=      5-min Rain = 0
KBR1 121549Z 05006KT 27/19 A3013 RMK A01 T02730189  RH  060%=      5-min Rain = 0
KBR1 121550Z 06006KT 27/19 A3013 RMK A01 T02730190  RH  061%=      5-min Rain = 0
KBR1 121551Z 06006KT 27/19 A3013 RMK A01 T02730190  RH  060%=      5-min Rain = 0
KBR1 121552Z 08009KT 27/19 A3013 RMK A01 T02730189  RH  060%=      5-min Rain = 0
KBR1 121553Z 06009KT 28/19 A3013 RMK A01 T02750187  RH  059%=      5-min Rain = 0
KBR1 121554Z 07007KT 28/19 A3013 RMK A01 T02760188  RH  059%=      5-min Rain = 0
KBR1 121555Z 06007KT 28/19 A3013 RMK A01 T02770189  RH  059%=      5-min Rain = 0
KBR1 121556Z 08008KT 28/19 A3013 RMK A01 T02790191  RH  059%=      5-min Rain = 0
KBR1 121557Z 03008KT 28/19 A3013 RMK A01 T02800192  RH  059%=      5-min Rain = 0
KBR1 121558Z 06005KT 28/19 A3013 RMK A01 T02810193  RH  059%=      5-min Rain = 0
KBR1 121559Z 05004KT 28/19 A3013 RMK A01 T02810193  RH  059%=      5-min Rain = 0
KBR1 121600Z 08010KT 28/19 A3013 RMK A01 T02830191  RH  057%=      5-min Rain = 0
KBR1 121601Z 08009KT 28/19 A3013 RMK A01 T02820188  RH  057%=      5-min Rain = 0
KBR1 121602Z 07009KT 28/19 A3013 RMK A01 T02830189  RH  057%=      5-min Rain = 0
KBR1 121603Z 07007KT 28/19 A3013 RMK A01 T02840186  RH  055%=      5-min Rain = 0
KBR1 121604Z 08007KT 28/19 A3013 RMK A01 T02810187  RH  057%=      5-min Rain = 0
KBR1 121605Z 08009KT 28/19 A3013 RMK A01 T02830188  RH  057%=      5-min Rain = 0
KBR1 121606Z 07006KT 28/19 A3013 RMK A01 T02810188  RH  057%=      5-min Rain = 0
KBR1 121607Z 06006G11KT 28/19 A3013 RMK A01 T02780189  RH  058%=      5-min Rain = 0
KBR1 121608Z 08010KT 28/19 A3013 RMK A01 T02790189  RH  058%=      5-min Rain = 0
KBR1 121609Z 06008KT 28/19 A3013 RMK A01 T02830190  RH  057%=      5-min Rain = 0
KBR1 121610Z 05009KT 29/19 A3012 RMK A01 T02870188  RH  055%=      5-min Rain = 0
KBR1 121611Z 05009KT 29/19 A3012 RMK A01 T02860189  RH  056%=      5-min Rain = 0
KBR1 121612Z 07008KT 29/19 A3012 RMK A01 T02860190  RH  056%=      5-min Rain = 0
KBR1 121613Z 08007KT 29/19 A3012 RMK A01 T02850189  RH  056%=      5-min Rain = 0
KBR1 121614Z 08008KT 28/19 A3012 RMK A01 T02840190  RH  057%=      5-min Rain = 0
KBR1 121615Z 09007KT 28/19 A3012 RMK A01 T02830191  RH  057%=      5-min Rain = 0
KBR1 121616Z 09008KT 28/19 A3012 RMK A01 T02820190  RH  057%=      5-min Rain = 0
KBR1 121617Z 09008KT 28/19 A3012 RMK A01 T02840190  RH  057%=      5-min Rain = 0
KBR1 121618Z 08012KT 29/19 A3012 RMK A01 T02870185  RH  054%=      5-min Rain = 0
KBR1 121619Z 09010KT 29/18 A3012 RMK A01 T02880183  RH  053%=      5-min Rain = 0
KBR1 121620Z 07009KT 29/18 A3012 RMK A01 T02850182  RH  054%=      5-min Rain = 0
KBR1 121621Z 06008KT 29/18 A3012 RMK A01 T02850184  RH  054%=      5-min Rain = 0
KBR1 121622Z 07005KT 29/19 A3012 RMK A01 T02860185  RH  054%=      5-min Rain = 0
KBR1 121623Z 09008KT 29/19 A3012 RMK A01 T02860186  RH  055%=      5-min Rain = 0
KBR1 121624Z 08007KT 29/18 A3012 RMK A01 T02870184  RH  054%=      5-min Rain = 0
KBR1 121625Z 09005KT 29/19 A3012 RMK A01 T02850187  RH  056%=      5-min Rain = 0
KBR1 121626Z 09007KT 29/19 A3012 RMK A01 T02870188  RH  055%=      5-min Rain = 0
KBR1 121627Z 08006KT 29/19 A3012 RMK A01 T02870187  RH  055%=      5-min Rain = 0
KBR1 121628Z 09008KT 29/19 A3012 RMK A01 T02880185  RH  054%=      5-min Rain = 0
KBR1 121629Z 06008KT 29/19 A3012 RMK A01 T02900187  RH  054%=      5-min Rain = 0
KBR1 121630Z 07010KT 29/19 A3012 RMK A01 T02920186  RH  053%=      5-min Rain = 0
KBR1 121631Z 09008KT 29/18 A3012 RMK A01 T02930182  RH  051%=      5-min Rain = 0
KBR1 121632Z 08007KT 29/18 A3012 RMK A01 T02940184  RH  051%=      5-min Rain = 0
KBR1 121633Z 05005KT 29/19 A3012 RMK A01 T02940187  RH  052%=      5-min Rain = 0
KBR1 121634Z 08004KT 29/19 A3012 RMK A01 T02930188  RH  053%=      5-min Rain = 0
KBR1 121635Z 08006KT 29/19 A3012 RMK A01 T02940186  RH  052%=      5-min Rain = 0
KBR1 121636Z 07008KT 30/19 A3012 RMK A01 T02950187  RH  052%=      5-min Rain = 0
KBR1 121637Z 08007KT 30/19 A3012 RMK A01 T02960186  RH  052%=      5-min Rain = 0
KBR1 121638Z 09006KT 30/19 A3012 RMK A01 T02980186  RH  051%=      5-min Rain = 0
KBR1 121639Z 08008KT 30/19 A3012 RMK A01 T02980185  RH  051%=      5-min Rain = 0
KBR1 121640Z 08009KT 30/18 A3012 RMK A01 T02970184  RH  051%=      5-min Rain = 0
KBR1 121641Z 07007KT 29/18 A3012 RMK A01 T02930183  RH  051%=      5-min Rain = 0
KBR1 121642Z 08005KT 29/18 A3012 RMK A01 T02910184  RH  052%=      5-min Rain = 0
KBR1 121643Z 07007G13KT 29/18 A3012 RMK A01 T02910184  RH  052%=      5-min Rain = 0
KBR1 121644Z 09008KT 30/18 A3012 RMK A01 T02970178  RH  049%=      5-min Rain = 0
KBR1 121645Z 10005KT 30/17 A3012 RMK A01 T03010171  RH  046%=      5-min Rain = 0
KBR1 121646Z 09006KT 30/18 A3012 RMK A01 T02990177  RH  048%=      5-min Rain = 0
KBR1 121647Z 07005KT 30/18 A3012 RMK A01 T02990179  RH  049%=      5-min Rain = 0
KBR1 121648Z 08005KT 30/18 A3012 RMK A01 T02960180  RH  049%=      5-min Rain = 0
KBR1 121649Z 08007KT 30/18 A3012 RMK A01 T02970182  RH  050%=      5-min Rain = 0
KBR1 121650Z 08011KT 30/19 A3012 RMK A01 T03040186  RH  049%=      5-min Rain = 0
KBR1 121651Z 09012KT 31/18 A3012 RMK A01 T03060182  RH  048%=      5-min Rain = 0
KBR1 121652Z 09006KT 30/18 A3012 RMK A01 T03010180  RH  048%=      5-min Rain = 0
KBR1 121653Z 10003KT 30/18 A3012 RMK A01 T02990181  RH  049%=      5-min Rain = 0
KBR1 121654Z 08005KT 30/18 A3012 RMK A01 T02990181  RH  049%=      5-min Rain = 0
KBR1 121655Z 06011KT 30/18 A3011 RMK A01 T02990178  RH  048%=      5-min Rain = 0
KBR1 121656Z 07010KT 30/18 A3011 RMK A01 T03020179  RH  048%=      5-min Rain = 0
KBR1 121657Z 09008KT 31/18 A3012 RMK A01 T03050181  RH  048%=      5-min Rain = 0
KBR1 121658Z 09008KT 30/18 A3011 RMK A01 T03040183  RH  048%=      5-min Rain = 0
KBR1 121659Z 09007KT 30/19 A3011 RMK A01 T03030185  RH  049%=      5-min Rain = 0
KBR1 121700Z 08007G15KT 31/18 A3011 RMK A01 T03060184  RH  048%=      5-min Rain = 0
KBR1 121701Z 08012KT 31/18 A3011 RMK A01 T03100181  RH  046%=      5-min Rain = 0
KBR1 121702Z 07012KT 31/18 A3011 RMK A01 T03120177  RH  044%=      5-min Rain = 0
KBR1 121703Z 06011KT 31/18 A3011 RMK A01 T03080176  RH  045%=      5-min Rain = 0
KBR1 121704Z 07008KT 31/18 A3011 RMK A01 T03060175  RH  045%=      5-min Rain = 0
KBR1 121705Z 12009KT 30/17 A3011 RMK A01 T03040173  RH  046%=      5-min Rain = 0
KBR1 121706Z 10011KT 31/17 A3011 RMK A01 T03050174  RH  046%=      5-min Rain = 0
KBR1 121707Z 09011KT 31/18 A3011 RMK A01 T03080175  RH  045%=      5-min Rain = 0
KBR1 121708Z 10009KT 31/18 A3011 RMK A01 T03060176  RH  046%=      5-min Rain = 0
KBR1 121709Z 11010KT 31/18 A3011 RMK A01 T03080177  RH  045%=      5-min Rain = 0
KBR1 121710Z 11007KT 31/18 A3011 RMK A01 T03100177  RH  045%=      5-min Rain = 0
KBR1 121711Z 14006KT 31/17 A3011 RMK A01 T03080174  RH  045%=      5-min Rain = 0
KBR1 121712Z 13008KT 31/18 A3011 RMK A01 T03060176  RH  046%=      5-min Rain = 0
KBR1 121713Z 09008KT 31/18 A3011 RMK A01 T03060177  RH  046%=      5-min Rain = 0
KBR1 121714Z 11010KT 31/18 A3011 RMK A01 T03110178  RH  045%=      5-min Rain = 0
KBR1 121715Z 11009KT 31/17 A3011 RMK A01 T03130173  RH  043%=      5-min Rain = 0
KBR1 121716Z 13007KT 31/17 A3011 RMK A01 T03080171  RH  044%=      5-min Rain = 0
KBR1 121717Z 14009KT 31/18 A3011 RMK A01 T03060175  RH  046%=      5-min Rain = 0
KBR1 121718Z 10006KT 31/18 A3011 RMK A01 T03070176  RH  045%=      5-min Rain = 0
KBR1 121719Z 15006KT 31/18 A3011 RMK A01 T03090176  RH  045%=      5-min Rain = 0
KBR1 121720Z 13008KT 31/17 A3011 RMK A01 T03100174  RH  044%=      5-min Rain = 0
KBR1 121721Z 10010KT 31/17 A3011 RMK A01 T03090173  RH  044%=      5-min Rain = 0
KBR1 121722Z 09010KT 31/17 A3011 RMK A01 T03090172  RH  044%=      5-min Rain = 0
KBR1 121723Z 10010KT 31/17 A3011 RMK A01 T03100173  RH  044%=      5-min Rain = 0
KBR1 121724Z 09010KT 31/18 A301 RMK A01 T03110176  RH  044%=      5-min Rain = 0
KBR1 121725Z 08007KT 31/17 A3011 RMK A01 T03100174  RH  044%=      5-min Rain = 0
KBR1 121726Z 09006KT 31/17 A301 RMK A01 T03080173  RH  045%=      5-min Rain = 0
KBR1 121727Z 09003KT 31/17 A301 RMK A01 T03090173  RH  044%=      5-min Rain = 0
KBR1 121728Z 07005KT 31/17 A301 RMK A01 T03110172  RH  044%=      5-min Rain = 0
KBR1 121729Z 09008G13KT 31/17 A301 RMK A01 T03130173  RH  043%=      5-min Rain = 0
KBR1 121730Z 13012KT 31/17 A301 RMK A01 T03140169  RH  042%=      5-min Rain = 0
KBR1 121731Z 12009KT 31/17 A301 RMK A01 T03130167  RH  041%=      5-min Rain = 0
KBR1 121732Z 12008KT 31/17 A301 RMK A01 T03120166  RH  042%=      5-min Rain = 0
KBR1 121733Z 16006KT 31/17 A301 RMK A01 T03110166  RH  042%=      5-min Rain = 0
KBR1 121734Z 12006KT 31/17 A301 RMK A01 T03100169  RH  043%=      5-min Rain = 0
KBR1 121735Z 10010KT 31/17 A301 RMK A01 T03120173  RH  043%=      5-min Rain = 0
KBR1 121736Z 10007KT 31/17 A301 RMK A01 T03130172  RH  043%=      5-min Rain = 0
KBR1 121737Z 11004KT 31/17 A301 RMK A01 T03130172  RH  043%=      5-min Rain = 0
KBR1 121738Z 10002KT 31/17 A301 RMK A01 T03120169  RH  042%=      5-min Rain = 0
KBR1 121739Z 08003KT 31/17 A301 RMK A01 T03100169  RH  043%=      5-min Rain = 0
KBR1 121740Z 10007KT 31/17 A301 RMK A01 T03110172  RH  043%=      5-min Rain = 0
KBR1 121741Z 09010KT 31/17 A301 RMK A01 T03120171  RH  043%=      5-min Rain = 0
KBR1 121742Z 10011KT 31/17 A301 RMK A01 T03130171  RH  043%=      5-min Rain = 0
KBR1 121743Z 08008KT 31/17 A301 RMK A01 T03130169  RH  042%=      5-min Rain = 0
KBR1 121744Z 08006KT 31/17 A301 RMK A01 T03130169  RH  042%=      5-min Rain = 0
KBR1 121745Z 09005KT 31/17 A301 RMK A01 T03100168  RH  043%=      5-min Rain = 0
KBR1 121746Z 12005KT 31/17 A3009 RMK A01 T03100167  RH  042%=      5-min Rain = 0
KBR1 121747Z 12004KT 31/16 A3009 RMK A01 T03110164  RH  041%=      5-min Rain = 0
KBR1 121748Z 12003KT 31/17 A3009 RMK A01 T03130166  RH  041%=      5-min Rain = 0
KBR1 121749Z 15002KT 31/17 A3009 RMK A01 T03120169  RH  042%=      5-min Rain = 0
KBR1 121750Z 10005KT 32/17 A3009 RMK A01 T03160173  RH  043%=      5-min Rain = 0
KBR1 121751Z 13006KT 32/17 A3009 RMK A01 T03170172  RH  042%=      5-min Rain = 0
KBR1 121752Z 08003KT 32/17 A3009 RMK A01 T03190174  RH  042%=      5-min Rain = 0
KBR1 121753Z 09005KT 32/17 A3009 RMK A01 T03230172  RH  041%=      5-min Rain = 0
KBR1 121754Z 08005KT 32/17 A3009 RMK A01 T03240169  RH  039%=      5-min Rain = 0
KBR1 121755Z 12004KT 32/17 A3009 RMK A01 T03200166  RH  040%=      5-min Rain = 0
KBR1 121756Z 12005KT 32/16 A3009 RMK A01 T03170162  RH  039%=      5-min Rain = 0
KBR1 121757Z 14010KT 32/16 A3009 RMK A01 T03170164  RH  040%=      5-min Rain = 0
KBR1 121758Z 16007KT 32/16 A3009 RMK A01 T03200164  RH  039%=      5-min Rain = 0
KBR1 121759Z 20004KT 32/16 A3009 RMK A01 T03180164  RH  040%=      5-min Rain = 0
KBR1 121800Z 22002KT 32/16 A3009 RMK A01 T03180164  RH  040%=      5-min Rain = 0
KBR1 121801Z 21003KT 32/17 A3009 RMK A01 T03170165  RH  040%=      5-min Rain = 0
KBR1 121802Z 16004KT 32/16 A3009 RMK A01 T03190164  RH  039%=      5-min Rain = 0
KBR1 121803Z 14005KT 32/17 A3009 RMK A01 T03180165  RH  040%=      5-min Rain = 0
KBR1 121804Z 13003KT 32/16 A3009 RMK A01 T03180164  RH  040%=      5-min Rain = 0
KBR1 121805Z 12007KT 32/17 A3009 RMK A01 T03180168  RH  041%=      5-min Rain = 0
KBR1 121806Z 13006KT 32/17 A3009 RMK A01 T03190167  RH  040%=      5-min Rain = 0
KBR1 121807Z 13007KT 32/17 A3009 RMK A01 T03170167  RH  041%=      5-min Rain = 0
KBR1 121808Z 14007KT 32/16 A3009 RMK A01 T03190163  RH  039%=      5-min Rain = 0
KBR1 121809Z 13002KT 32/16 A3008 RMK A01 T03180164  RH  040%=      5-min Rain = 0
KBR1 121810Z 12002KT 32/16 A3008 RMK A01 T03190164  RH  039%=      5-min Rain = 0
KBR1 121811Z 10007KT 32/17 A3008 RMK A01 T03210168  RH  040%=      5-min Rain = 0
KBR1 121812Z 09009KT 33/17 A3008 RMK A01 T03250168  RH  039%=      5-min Rain = 0
KBR1 121813Z 09009KT 33/17 A3008 RMK A01 T03260167  RH  039%=      5-min Rain = 0
KBR1 121814Z 07010KT 33/17 A3008 RMK A01 T03250168  RH  039%=      5-min Rain = 0
KBR1 121815Z 08009KT 33/17 A3008 RMK A01 T03250168  RH  039%=      5-min Rain = 0
KBR1 121816Z 06006KT 32/17 A3008 RMK A01 T03220168  RH  040%=      5-min Rain = 0
KBR1 121817Z 03006KT 32/17 A3008 RMK A01 T03210167  RH  040%=      5-min Rain = 0
KBR1 121818Z 11004KT 32/17 A3008 RMK A01 T03220168  RH  040%=      5-min Rain = 0
KBR1 121819Z 17004KT 32/17 A3008 RMK A01 T03240166  RH  039%=      5-min Rain = 0
KBR1 121820Z 09007KT 33/17 A3008 RMK A01 T03270168  RH  039%=      5-min Rain = 0
KBR1 121821Z 08002KT 33/17 A3008 RMK A01 T03290166  RH  038%=      5-min Rain = 0
KBR1 121822Z 14002KT 33/17 A3008 RMK A01 T03260167  RH  039%=      5-min Rain = 0
KBR1 121823Z 10005KT 33/17 A3008 RMK A01 T03280166  RH  038%=      5-min Rain = 0
KBR1 121824Z 10009KT 33/17 A3007 RMK A01 T03300168  RH  038%=      5-min Rain = 0
KBR1 121825Z 14008KT 33/17 A3007 RMK A01 T03330167  RH  037%=      5-min Rain = 0
KBR1 121826Z 11005KT 33/17 A3007 RMK A01 T03340168  RH  037%=      5-min Rain = 0
KBR1 121827Z 11006KT 33/17 A3007 RMK A01 T03330167  RH  037%=      5-min Rain = 0
KBR1 121828Z 13007KT 33/17 A3007 RMK A01 T03310168  RH  038%=      5-min Rain = 0
KBR1 121829Z 13012KT 34/17 A3007 RMK A01 T03370170  RH  037%=      5-min Rain = 0
KBR1 121830Z 12011KT 34/17 A3007 RMK A01 T03400168  RH  036%=      5-min Rain = 0
KBR1 121831Z 11008KT 34/17 A3007 RMK A01 T03370165  RH  036%=      5-min Rain = 0
KBR1 121832Z 14008KT 33/16 A3007 RMK A01 T03320164  RH  037%=      5-min Rain = 0
KBR1 121833Z 16004KT 33/16 A3007 RMK A01 T03280162  RH  037%=      5-min Rain = 0
KBR1 121834Z 16005KT 33/17 A3007 RMK A01 T03280167  RH  038%=      5-min Rain = 0
KBR1 121835Z 15002KT 33/16 A3007 RMK A01 T03310163  RH  037%=      5-min Rain = 0
KBR1 121836Z 21001KT 33/16 A3007 RMK A01 T03290163  RH  037%=      5-min Rain = 0
KBR1 121837Z 10002KT 33/16 A3007 RMK A01 T03290164  RH  037%=      5-min Rain = 0
KBR1 121838Z 10003KT 33/17 A3007 RMK A01 T03290165  RH  038%=      5-min Rain = 0
KBR1 121839Z 09006KT 33/17 A3007 RMK A01 T03300166  RH  038%=      5-min Rain = 0
KBR1 121840Z 10005KT 33/17 A3006 RMK A01 T03310166  RH  037%=      5-min Rain = 0
KBR1 121841Z 09010KT 34/17 A3006 RMK A01 T03350171  RH  038%=      5-min Rain = 0
KBR1 121842Z 10006KT 34/17 A3006 RMK A01 T03390165  RH  035%=      5-min Rain = 0
KBR1 121843Z 09008KT 34/17 A3006 RMK A01 T03350166  RH  037%=      5-min Rain = 0
KBR1 121844Z 09008KT 33/17 A3006 RMK A01 T03330166  RH  037%=      5-min Rain = 0
KBR1 121845Z 09008KT 33/17 A3006 RMK A01 T03330166  RH  037%=      5-min Rain = 0
KBR1 121846Z 08007KT 33/17 A3006 RMK A01 T03310166  RH  037%=      5-min Rain = 0
KBR1 121847Z 07007G13KT 33/17 A3006 RMK A01 T03300165  RH  037%=      5-min Rain = 0
KBR1 121848Z 10009KT 33/16 A3006 RMK A01 T03300164  RH  037%=      5-min Rain = 0
KBR1 121849Z 06007KT 33/16 A3006 RMK A01 T03300164  RH  037%=      5-min Rain = 0
KBR1 121850Z 03009KT 33/17 A3006 RMK A01 T03330166  RH  037%=      5-min Rain = 0
KBR1 121851Z 02005KT 34/17 A3006 RMK A01 T03360165  RH  036%=      5-min Rain = 0
KBR1 121852Z 35003KT 34/17 A3006 RMK A01 T03350167  RH  037%=      5-min Rain = 0
KBR1 121853Z 35001KT 34/17 A3006 RMK A01 T03370166  RH  036%=      5-min Rain = 0
KBR1 121854Z 11001KT 34/17 A3006 RMK A01 T03390166  RH  036%=      5-min Rain = 0
KBR1 121855Z 13006KT 34/17 A3006 RMK A01 T03400167  RH  036%=      5-min Rain = 0
KBR1 121856Z 14007KT 34/17 A3005 RMK A01 T03430166  RH  035%=      5-min Rain = 0
KBR1 121857Z 13003KT 34/17 A3005 RMK A01 T03400165  RH  035%=      5-min Rain = 0
KBR1 121858Z 16002KT 34/16 A3005 RMK A01 T03400164  RH  035%=      5-min Rain = 0
KBR1 121859Z 19004KT 34/16 A3005 RMK A01 T03400162  RH  035%=      5-min Rain = 0
KBR1 121900Z 19006KT 34/16 A3005 RMK A01 T03400164  RH  035%=      5-min Rain = 0
KBR1 121901Z 19006KT 34/17 A3005 RMK A01 T03420165  RH  035%=      5-min Rain = 0
KBR1 121902Z 19004KT 34/16 A3005 RMK A01 T03410163  RH  034%=      5-min Rain = 0
KBR1 121903Z 16004KT 34/16 A3005 RMK A01 T03380161  RH  035%=      5-min Rain = 0
KBR1 121904Z 16005KT 34/16 A3005 RMK A01 T03370163  RH  035%=      5-min Rain = 0
KBR1 121905Z 14009KT 34/16 A3005 RMK A01 T03410163  RH  035%=      5-min Rain = 0
KBR1 121906Z 17007KT 35/16 A3005 RMK A01 T03470160  RH  033%=      5-min Rain = 0
KBR1 121907Z 17004KT 34/16 A3005 RMK A01 T03440158  RH  033%=      5-min Rain = 0
KBR1 121908Z 17008KT 34/16 A3005 RMK A01 T03420159  RH  034%=      5-min Rain = 0
KBR1 121909Z 17009KT 35/16 A3005 RMK A01 T03460159  RH  033%=      5-min Rain = 0
KBR1 121910Z 18008KT 35/16 A3005 RMK A01 T03470158  RH  032%=      5-min Rain = 0
KBR1 121911Z 17007KT 35/16 A3005 RMK A01 T03460157  RH  032%=      5-min Rain = 0
KBR1 121912Z 16006KT 34/16 A3005 RMK A01 T03430157  RH  033%=      5-min Rain = 0
KBR1 121913Z 12004KT 34/16 A3005 RMK A01 T03420156  RH  033%=      5-min Rain = 0
KBR1 121914Z 10005KT 34/16 A3005 RMK A01 T03420161  RH  034%=      5-min Rain = 0
KBR1 121915Z 07005KT 35/17 A3004 RMK A01 T03450165  RH  034%=      5-min Rain = 0
KBR1 121916Z 06005KT 35/16 A3004 RMK A01 T03460164  RH  034%=      5-min Rain = 0
KBR1 121917Z 08005KT 35/16 A3004 RMK A01 T03470160  RH  033%=      5-min Rain = 0
KBR1 121918Z 08003KT 34/16 A3004 RMK A01 T03430160  RH  034%=      5-min Rain = 0
KBR1 121919Z 11004KT 34/16 A3004 RMK A01 T03430161  RH  034%=      5-min Rain = 0
KBR1 121920Z 08003KT 34/16 A3004 RMK A01 T03430160  RH  034%=      5-min Rain = 0
KBR1 121921Z 04001KT 34/16 A3004 RMK A01 T03420160  RH  034%=      5-min Rain = 0
KBR1 121922Z 13003G8KT 34/16 A3004 RMK A01 T03420162  RH  034%=      5-min Rain = 0
KBR1 121923Z 10005KT 35/16 A3004 RMK A01 T03470163  RH  033%=      5-min Rain = 0
KBR1 121924Z 10007KT 35/16 A3004 RMK A01 T03490162  RH  033%=      5-min Rain = 0
KBR1 121925Z 12007KT 35/16 A3003 RMK A01 T03500159  RH  032%=      5-min Rain = 0
KBR1 121926Z 12006KT 35/16 A3003 RMK A01 T03480157  RH  032%=      5-min Rain = 0
KBR1 121927Z 09010KT 35/16 A3003 RMK A01 T03500162  RH  033%=      5-min Rain = 0
KBR1 121928Z 08012KT 35/16 A3003 RMK A01 T03540157  RH  031%=      5-min Rain = 0
KBR1 121929Z 10010KT 35/16 A3003 RMK A01 T03520157  RH  031%=      5-min Rain = 0
KBR1 121930Z 12003KT 35/15 A3003 RMK A01 T03500154  RH  031%=      5-min Rain = 0
KBR1 121931Z 10004KT 35/16 A3003 RMK A01 T03490156  RH  032%=      5-min Rain = 0
KBR1 121932Z 13004KT 35/15 A3003 RMK A01 T03500154  RH  031%=      5-min Rain = 0
KBR1 121933Z 20001KT 35/15 A3003 RMK A01 T03470154  RH  032%=      5-min Rain = 0
KBR1 121934Z 24001KT 35/16 A3003 RMK A01 T03470155  RH  032%=      5-min Rain = 0
KBR1 121935Z 06002KT 35/16 A3003 RMK A01 T03480156  RH  032%=      5-min Rain = 0
KBR1 121936Z 08005KT 35/16 A3003 RMK A01 T03510158  RH  032%=      5-min Rain = 0
KBR1 121937Z 10006KT 35/16 A3003 RMK A01 T03530155  RH  031%=      5-min Rain = 0
KBR1 121938Z 09006KT 35/15 A3003 RMK A01 T03530151  RH  030%=      5-min Rain = 0
KBR1 121939Z 08003KT 35/15 A3003 RMK A01 T03490148  RH  030%=      5-min Rain = 0
KBR1 121940Z 04002KT 35/15 A3002 RMK A01 T03470149  RH  030%=      5-min Rain = 0
KBR1 121941Z 33002KT 35/15 A3002 RMK A01 T03460149  RH  031%=      5-min Rain = 0
KBR1 121942Z 05002KT 35/15 A3002 RMK A01 T03470151  RH  031%=      5-min Rain = 0
KBR1 121943Z 07007KT 35/15 A3002 RMK A01 T03510154  RH  031%=      5-min Rain = 0
KBR1 121944Z 10012G21KT 36/15 A3002 RMK A01 T03580146  RH  028%=      5-min Rain = 0
KBR1 121945Z 16011KT 36/16 A3001 RMK A01 T03640155  RH  029%=      5-min Rain = 0
KBR1 121946Z 14009KT 36/15 A3002 RMK A01 T03630149  RH  028%=      5-min Rain = 0
KBR1 121947Z 14011KT 36/15 A3002 RMK A01 T03630149  RH  028%=      5-min Rain = 0
KBR1 121948Z 11006KT 37/15 A3002 RMK A01 T03660147  RH  027%=      5-min Rain = 0
KBR1 121949Z 09005KT 37/14 A3002 RMK A01 T03660142  RH  026%=      5-min Rain = 0
KBR1 121950Z 07003KT 36/14 A3002 RMK A01 T03590138  RH  027%=      5-min Rain = 0
KBR1 121951Z 09003KT 36/14 A3002 RMK A01 T03570142  RH  028%=      5-min Rain = 0
KBR1 121952Z 12006KT 36/14 A3001 RMK A01 T03560143  RH  028%=      5-min Rain = 0
KBR1 121953Z 10007KT 36/14 A3001 RMK A01 T03570139  RH  027%=      5-min Rain = 0
KBR1 121954Z 18009KT 36/14 A3001 RMK A01 T03580141  RH  027%=      5-min Rain = 0
KBR1 121955Z 17009KT 36/14 A3001 RMK A01 T03610136  RH  026%=      5-min Rain = 0
KBR1 121956Z 18007KT 36/13 A3001 RMK A01 T03570134  RH  026%=      5-min Rain = 0
KBR1 121957Z 19009G14KT 35/13 A3001 RMK A01 T03540133  RH  027%=      5-min Rain = 0
KBR1 121958Z 20007KT 35/13 A3001 RMK A01 T03530134  RH  027%=      5-min Rain = 0
KBR1 121959Z 17007KT 35/13 A3001 RMK A01 T03520134  RH  027%=      5-min Rain = 0
KBR1 122000Z 17008KT 35/13 A3001 RMK A01 T03530134  RH  027%=      5-min Rain = 0
KBR1 122001Z 18008KT 35/13 A30 RMK A01 T03530133  RH  027%=      5-min Rain = 0
KBR1 122002Z 17005KT 35/13 A30 RMK A01 T03510132  RH  027%=      5-min Rain = 0
KBR1 122003Z 18006KT 35/13 A3001 RMK A01 T03500133  RH  027%=      5-min Rain = 0
KBR1 122004Z 17007KT 35/14 A3001 RMK A01 T03530135  RH  027%=      5-min Rain = 0
KBR1 122005Z 15010KT 36/14 A3001 RMK A01 T03560136  RH  027%=      5-min Rain = 0
KBR1 122006Z 15008KT 36/13 A3001 RMK A01 T03570134  RH  026%=      5-min Rain = 0
KBR1 122007Z 16004KT 36/13 A3001 RMK A01 T03580134  RH  026%=      5-min Rain = 0
KBR1 122008Z 15002KT 36/13 A3001 RMK A01 T03580133  RH  026%=      5-min Rain = 0
KBR1 122009Z 19003KT 36/13 A3001 RMK A01 T03570132  RH  026%=      5-min Rain = 0
KBR1 122010Z 21002KT 36/13 A3001 RMK A01 T03580133  RH  026%=      5-min Rain = 0
KBR1 122011Z 24004KT 36/14 A3001 RMK A01 T03600137  RH  026%=      5-min Rain = 0
KBR1 122012Z 27003KT 36/14 A3001 RMK A01 T03630136  RH  026%=      5-min Rain = 0
KBR1 122013Z 22004KT 36/14 A3001 RMK A01 T03630138  RH  026%=      5-min Rain = 0
KBR1 122014Z 23005KT 36/14 A30 RMK A01 T03640135  RH  026%=      5-min Rain = 0
KBR1 122015Z 22006KT 36/13 A30 RMK A01 T03610134  RH  026%=      5-min Rain = 0
KBR1 122016Z 15004KT 36/14 A30 RMK A01 T03620138  RH  026%=      5-min Rain = 0
KBR1 122017Z 24004KT 37/14 A30 RMK A01 T03650136  RH  025%=      5-min Rain = 0
KBR1 122018Z 23006KT 37/14 A30 RMK A01 T03660135  RH  025%=      5-min Rain = 0
KBR1 122019Z 21005KT 36/14 A30 RMK A01 T03620135  RH  026%=      5-min Rain = 0
KBR1 122020Z 22008KT 36/14 A30 RMK A01 T03620136  RH  026%=      5-min Rain = 0
KBR1 122021Z 21009KT 37/14 A30 RMK A01 T03670138  RH  025%=      5-min Rain = 0
KBR1 122022Z 17007G13KT 37/14 A30 RMK A01 T03710135  RH  024%=      5-min Rain = 0
KBR1 122023Z 17008KT 37/14 A30 RMK A01 T03730135  RH  024%=      5-min Rain = 0
KBR1 122024Z 18009KT 37/13 A30 RMK A01 T03710134  RH  024%=      5-min Rain = 0
KBR1 122025Z 18013KT 37/13 A30 RMK A01 T03690131  RH  024%=      5-min Rain = 0
KBR1 122026Z 19009KT 37/13 A30 RMK A01 T03670132  RH  025%=      5-min Rain = 0
KBR1 122027Z 22005KT 36/13 A30 RMK A01 T03640129  RH  024%=      5-min Rain = 0
KBR1 122028Z 18008KT 36/13 A30 RMK A01 T03630133  RH  025%=      5-min Rain = 0
KBR1 122029Z 18008KT 37/13 A30 RMK A01 T03680132  RH  024%=      5-min Rain = 0
KBR1 122030Z 20011KT 37/13 A30 RMK A01 T03680132  RH  024%=      5-min Rain = 0
KBR1 122031Z 22007KT 37/13 A30 RMK A01 T03660130  RH  024%=      5-min Rain = 0
KBR1 122032Z 22006KT 37/13 A30 RMK A01 T03650132  RH  025%=      5-min Rain = 0
KBR1 122033Z 22007KT 36/13 A30 RMK A01 T03640130  RH  025%=      5-min Rain = 0
KBR1 122034Z 18008KT 37/13 A30 RMK A01 T03650130  RH  025%=      5-min Rain = 0
KBR1 122035Z 15007KT 37/13 A30 RMK A01 T03660133  RH  025%=      5-min Rain = 0
KBR1 122036Z 14007KT 37/13 A30 RMK A01 T03680130  RH  024%=      5-min Rain = 0
KBR1 122037Z 17005KT 37/13 A30 RMK A01 T03650128  RH  024%=      5-min Rain = 0
KBR1 122038Z 18009KT 36/13 A30 RMK A01 T03620127  RH  024%=      5-min Rain = 0
KBR1 122039Z 19007KT 36/13 A30 RMK A01 T03620125  RH  024%=      5-min Rain = 0
KBR1 122040Z 20003KT 36/12 A30 RMK A01 T03600123  RH  024%=      5-min Rain = 0
KBR1 122041Z 23003KT 36/13 A30 RMK A01 T03580125  RH  025%=      5-min Rain = 0
KBR1 122042Z 21005KT 36/13 A30 RMK A01 T03610131  RH  025%=      5-min Rain = 0
KBR1 122043Z 21007KT 37/13 A2999 RMK A01 T03650127  RH  024%=      5-min Rain = 0
KBR1 122044Z 23005KT 37/12 A2999 RMK A01 T03650124  RH  023%=      5-min Rain = 0
KBR1 122045Z 23003KT 36/12 A2999 RMK A01 T03630121  RH  023%=      5-min Rain = 0
KBR1 122046Z 17007KT 36/13 A2999 RMK A01 T03630125  RH  024%=      5-min Rain = 0
KBR1 122047Z 18007KT 36/12 A2999 RMK A01 T03640123  RH  024%=      5-min Rain = 0
KBR1 122048Z 16006KT 36/12 A2999 RMK A01 T03640122  RH  023%=      5-min Rain = 0
KBR1 122049Z 15005KT 36/12 A2999 RMK A01 T03640123  RH  024%=      5-min Rain = 0
KBR1 122050Z 14003KT 36/12 A2999 RMK A01 T03640120  RH  023%=      5-min Rain = 0
KBR1 122051Z 19004KT 36/12 A2999 RMK A01 T03640118  RH  023%=      5-min Rain = 0
KBR1 122052Z 20002KT 37/11 A2999 RMK A01 T03660112  RH  022%=      5-min Rain = 0
KBR1 122053Z 18004KT 37/12 A2999 RMK A01 T03660115  RH  022%=      5-min Rain = 0
KBR1 122054Z 22006KT 37/12 A2999 RMK A01 T03690122  RH  023%=      5-min Rain = 0
KBR1 122055Z 24003KT 37/12 A2999 RMK A01 T03680119  RH  022%=      5-min Rain = 0
KBR1 122056Z 23001KT 36/12 A2999 RMK A01 T03640117  RH  023%=      5-min Rain = 0
KBR1 122057Z 34002KT 36/12 A2999 RMK A01 T03640118  RH  023%=      5-min Rain = 0
KBR1 122058Z 34004KT 36/12 A2999 RMK A01 T03640117  RH  023%=      5-min Rain = 0
KBR1 122059Z 31003KT 36/12 A2999 RMK A01 T03630115  RH  022%=      5-min Rain = 0
KBR1 122100Z 00003KT 36/11 A2998 RMK A01 T03630111  RH  022%=      5-min Rain = 0
KBR1 122101Z 03004KT 36/11 A2998 RMK A01 T03630113  RH  022%=      5-min Rain = 0
KBR1 122102Z 01004KT 36/12 A2998 RMK A01 T03610115  RH  023%=      5-min Rain = 0
KBR1 122103Z 36004KT 36/12 A2998 RMK A01 T03620118  RH  023%=      5-min Rain = 0
KBR1 122104Z 01003KT 36/12 A2998 RMK A01 T03630115  RH  022%=      5-min Rain = 0
KBR1 122105Z 31003KT 36/12 A2998 RMK A01 T03630115  RH  022%=      5-min Rain = 0
KBR1 122106Z 31003KT 36/12 A2998 RMK A01 T03640117  RH  023%=      5-min Rain = 0
KBR1 122107Z 26003KT 37/12 A2998 RMK A01 T03670120  RH  023%=      5-min Rain = 0
KBR1 122108Z 28003KT 37/12 A2998 RMK A01 T03680120  RH  022%=      5-min Rain = 0
KBR1 122109Z 26002KT 37/12 A2998 RMK A01 T03690120  RH  022%=      5-min Rain = 0
KBR1 122110Z 24002KT 37/12 A2998 RMK A01 T03690119  RH  022%=      5-min Rain = 0
KBR1 122111Z 25003KT 37/12 A2997 RMK A01 T03700124  RH  023%=      5-min Rain = 0
KBR1 122112Z 22006KT 37/13 A2997 RMK A01 T03730125  RH  023%=      5-min Rain = 0
KBR1 122113Z 23004KT 37/12 A2997 RMK A01 T03710120  RH  022%=      5-min Rain = 0
KBR1 122114Z 25002KT 37/12 A2997 RMK A01 T03670122  RH  023%=      5-min Rain = 0
KBR1 122115Z 24002KT 37/12 A2997 RMK A01 T03670122  RH  023%=      5-min Rain = 0
KBR1 122116Z 20005KT 37/12 A2997 RMK A01 T03680123  RH  023%=      5-min Rain = 0
KBR1 122117Z 19006KT 37/13 A2997 RMK A01 T03700125  RH  023%=      5-min Rain = 0
KBR1 122118Z 18006KT 38/12 A2997 RMK A01 T03750124  RH  022%=      5-min Rain = 0
KBR1 122119Z 17005KT 37/12 A2997 RMK A01 T03740118  RH  022%=      5-min Rain = 0
KBR1 122120Z 19005KT 37/12 A2997 RMK A01 T03720120  RH  022%=      5-min Rain = 0
KBR1 122121Z 20004KT 37/12 A2997 RMK A01 T03730121  RH  022%=      5-min Rain = 0
KBR1 122122Z 20006KT 37/12 A2997 RMK A01 T03740121  RH  022%=      5-min Rain = 0
KBR1 122123Z 19010KT 37/12 A2996 RMK A01 T03730120  RH  022%=      5-min Rain = 0
KBR1 122124Z 19010KT 37/12 A2996 RMK A01 T03710121  RH  022%=      5-min Rain = 0
KBR1 122125Z 18009KT 37/12 A2996 RMK A01 T03720120  RH  022%=      5-min Rain = 0
KBR1 122126Z 17008KT 37/12 A2996 RMK A01 T03710118  RH  022%=      5-min Rain = 0
KBR1 122127Z 19003KT 37/12 A2996 RMK A01 T03690119  RH  022%=      5-min Rain = 0
KBR1 122128Z 19003KT 37/12 A2996 RMK A01 T03690120  RH  022%=      5-min Rain = 0
KBR1 122129Z 18009KT 37/12 A2996 RMK A01 T03700121  RH  022%=      5-min Rain = 0
KBR1 122130Z 19005KT 37/12 A2996 RMK A01 T03710119  RH  022%=      5-min Rain = 0
KBR1 122131Z 19004KT 37/12 A2996 RMK A01 T03710121  RH  022%=      5-min Rain = 0
KBR1 122132Z 18005KT 37/12 A2996 RMK A01 T03710120  RH  022%=      5-min Rain = 0
KBR1 122133Z 16005KT 37/12 A2996 RMK A01 T03710118  RH  022%=      5-min Rain = 0
KBR1 122134Z 18003KT 37/12 A2996 RMK A01 T03720116  RH  021%=      5-min Rain = 0
KBR1 122135Z 22002KT 37/12 A2996 RMK A01 T03720116  RH  021%=      5-min Rain = 0
KBR1 122136Z 27003KT 37/11 A2996 RMK A01 T03720114  RH  021%=      5-min Rain = 0
KBR1 122137Z 30002KT 37/12 A2996 RMK A01 T03710115  RH  021%=      5-min Rain = 0
KBR1 122138Z 32003KT 37/12 A2996 RMK A01 T03720115  RH  021%=      5-min Rain = 0
KBR1 122139Z 31001KT 37/12 A2996 RMK A01 T03720115  RH  021%=      5-min Rain = 0
KBR1 122140Z 15002KT 37/12 A2996 RMK A01 T03730115  RH  021%=      5-min Rain = 0
KBR1 122141Z 15003KT 38/11 A2996 RMK A01 T03750113  RH  021%=      5-min Rain = 0
KBR1 122142Z 17004KT 38/11 A2996 RMK A01 T03750113  RH  021%=      5-min Rain = 0
KBR1 122143Z 15006KT 37/11 A2996 RMK A01 T03740113  RH  021%=      5-min Rain = 0
KBR1 122144Z 12006KT 38/11 A2996 RMK A01 T03750110  RH  020%=      5-min Rain = 0
KBR1 122145Z 09003KT 37/11 A2996 RMK A01 T03720107  RH  020%=      5-min Rain = 0
KBR1 122146Z 06000KT 37/11 A2996 RMK A01 T03700107  RH  020%=      5-min Rain = 0
KBR1 122147Z 27001KT 37/11 A2996 RMK A01 T03720109  RH  021%=      5-min Rain = 0
KBR1 122148Z 31002KT 37/11 A2996 RMK A01 T03740106  RH  020%=      5-min Rain = 0
KBR1 122149Z 07002KT 38/11 A2995 RMK A01 T03750110  RH  020%=      5-min Rain = 0
KBR1 122150Z 08003KT 38/11 A2995 RMK A01 T03780110  RH  020%=      5-min Rain = 0
KBR1 122151Z 14002KT 38/11 A2996 RMK A01 T03780108  RH  020%=      5-min Rain = 0
KBR1 122152Z 20002G7KT 38/11 A2996 RMK A01 T03780107  RH  020%=      5-min Rain = 0
KBR1 122153Z 21005KT 38/11 A2995 RMK A01 T03790112  RH  020%=      5-min Rain = 0
KBR1 122154Z 21006KT 38/11 A2995 RMK A01 T03800111  RH  020%=      5-min Rain = 0
KBR1 122155Z 20005KT 38/11 A2995 RMK A01 T03810109  RH  020%=      5-min Rain = 0
KBR1 122156Z 20006KT 38/11 A2995 RMK A01 T03800110  RH  020%=      5-min Rain = 0
KBR1 122157Z 18006KT 38/11 A2995 RMK A01 T03800106  RH  019%=      5-min Rain = 0
KBR1 122158Z 20005KT 38/10 A2995 RMK A01 T03790100  RH  019%=      5-min Rain = 0
KBR1 122159Z 19003KT 38/10 A2995 RMK A01 T03770097  RH  018%=      5-min Rain = 0
KBR1 122200Z 21002KT 38/10 A2995 RMK A01 T03760097  RH  019%=      5-min Rain = 0
KBR1 122201Z 17002KT 38/10 A2995 RMK A01 T03760100  RH  019%=      5-min Rain = 0
KBR1 122202Z 18004KT 38/10 A2995 RMK A01 T03770099  RH  019%=      5-min Rain = 0
KBR1 122203Z 16005KT 38/10 A2995 RMK A01 T03780095  RH  018%=      5-min Rain = 0
KBR1 122204Z 15004KT 38/10 A2995 RMK A01 T03780098  RH  018%=      5-min Rain = 0
KBR1 122205Z 15006KT 38/10 A2995 RMK A01 T03770100  RH  019%=      5-min Rain = 0
KBR1 122206Z 17003KT 38/10 A2995 RMK A01 T03750099  RH  019%=      5-min Rain = 0
KBR1 122207Z 17002KT 37/10 A2995 RMK A01 T03740098  RH  019%=      5-min Rain = 0
KBR1 122208Z 19003KT 37/10 A2995 RMK A01 T03730099  RH  019%=      5-min Rain = 0
KBR1 122209Z 19003KT 37/10 A2995 RMK A01 T03740102  RH  019%=      5-min Rain = 0
KBR1 122210Z 20001KT 37/10 A2995 RMK A01 T03730100  RH  019%=      5-min Rain = 0
KBR1 122211Z 19000KT 37/10 A2995 RMK A01 T03730099  RH  019%=      5-min Rain = 0
KBR1 122212Z 36000KT 37/10 A2995 RMK A01 T03730099  RH  019%=      5-min Rain = 0
KBR1 122213Z 18001KT 37/10 A2995 RMK A01 T03730099  RH  019%=      5-min Rain = 0
KBR1 122214Z 22005KT 37/10 A2995 RMK A01 T03730100  RH  019%=      5-min Rain = 0
KBR1 122215Z 22006KT 37/10 A2995 RMK A01 T03710104  RH  020%=      5-min Rain = 0
KBR1 122216Z 24004KT 37/10 A2995 RMK A01 T03700103  RH  020%=      5-min Rain = 0
KBR1 122217Z 25005KT 37/11 A2995 RMK A01 T03700108  RH  021%=      5-min Rain = 0
KBR1 122218Z 26004KT 37/10 A2995 RMK A01 T03720102  RH  020%=      5-min Rain = 0
KBR1 122219Z 30005KT 37/11 A2995 RMK A01 T03720105  RH  020%=      5-min Rain = 0
KBR1 122220Z 32005KT 37/10 A2995 RMK A01 T03740101  RH  019%=      5-min Rain = 0
KBR1 122221Z 32004KT 38/10 A2995 RMK A01 T03750099  RH  019%=      5-min Rain = 0
KBR1 122222Z 31004KT 38/10 A2995 RMK A01 T03760102  RH  019%=      5-min Rain = 0
KBR1 122223Z 31005KT 38/10 A2995 RMK A01 T03770104  RH  019%=      5-min Rain = 0
KBR1 122224Z 31006KT 38/11 A2995 RMK A01 T03800105  RH  019%=      5-min Rain = 0
KBR1 122225Z 30005KT 38/10 A2995 RMK A01 T03800101  RH  019%=      5-min Rain = 0
KBR1 122226Z 32003KT 38/10 A2995 RMK A01 T03790103  RH  019%=      5-min Rain = 0
KBR1 122227Z 33003KT 38/10 A2994 RMK A01 T03790101  RH  019%=      5-min Rain = 0
KBR1 122228Z 26002KT 38/10 A2994 RMK A01 T03780102  RH  019%=      5-min Rain = 0
KBR1 122229Z 16000KT 38/10 A2994 RMK A01 T03780103  RH  019%=      5-min Rain = 0
KBR1 122230Z 34000KT 38/10 A2994 RMK A01 T03790103  RH  019%=      5-min Rain = 0
KBR1 122231Z 33000KT 38/10 A2994 RMK A01 T03780102  RH  019%=      5-min Rain = 0
KBR1 122232Z 00001KT 38/10 A2994 RMK A01 T03780103  RH  019%=      5-min Rain = 0
KBR1 122233Z 32001KT 38/11 A2994 RMK A01 T03800107  RH  019%=      5-min Rain = 0
KBR1 122234Z 28003KT 38/11 A2994 RMK A01 T03820107  RH  019%=      5-min Rain = 0
KBR1 122235Z 24006KT 38/11 A2994 RMK A01 T03830108  RH  019%=      5-min Rain = 0
KBR1 122236Z 23005KT 38/11 A2994 RMK A01 T03810107  RH  019%=      5-min Rain = 0
KBR1 122237Z 24005KT 38/11 A2994 RMK A01 T03790106  RH  019%=      5-min Rain = 0
KBR1 122238Z 21004KT 38/11 A2994 RMK A01 T03780108  RH  020%=      5-min Rain = 0
KBR1 122239Z 23003KT 38/11 A2994 RMK A01 T03790108  RH  020%=      5-min Rain = 0
KBR1 122240Z 28003KT 38/11 A2994 RMK A01 T03800114  RH  020%=      5-min Rain = 0
KBR1 122241Z 26004KT 38/11 A2994 RMK A01 T03830105  RH  019%=      5-min Rain = 0
KBR1 122242Z 27002KT 38/11 A2994 RMK A01 T03800105  RH  019%=      5-min Rain = 0
KBR1 122243Z 28002KT 38/11 A2994 RMK A01 T03800109  RH  020%=      5-min Rain = 0
KBR1 122244Z 30003KT 38/11 A2994 RMK A01 T03840107  RH  019%=      5-min Rain = 0
KBR1 122245Z 34003KT 38/10 A2994 RMK A01 T03820103  RH  019%=      5-min Rain = 0
KBR1 122246Z 23002KT 38/11 A2994 RMK A01 T03810107  RH  019%=      5-min Rain = 0
KBR1 122247Z 22004KT 38/11 A2994 RMK A01 T03820107  RH  019%=      5-min Rain = 0
KBR1 122248Z 24003KT 38/10 A2994 RMK A01 T03830103  RH  019%=      5-min Rain = 0
KBR1 122249Z 20002KT 38/10 A2994 RMK A01 T03830102  RH  019%=      5-min Rain = 0
KBR1 122250Z 30003KT 38/10 A2994 RMK A01 T03820104  RH  019%=      5-min Rain = 0
KBR1 122251Z 31006KT 38/10 A2994 RMK A01 T03840099  RH  018%=      5-min Rain = 0
KBR1 122252Z 31005KT 38/10 A2994 RMK A01 T03830100  RH  018%=      5-min Rain = 0
KBR1 122253Z 33005KT 39/10 A2994 RMK A01 T03850101  RH  018%=      5-min Rain = 0
KBR1 122254Z 33002KT 39/10 A2994 RMK A01 T03860100  RH  018%=      5-min Rain = 0
KBR1 122255Z 30002KT 39/10 A2994 RMK A01 T03850100  RH  018%=      5-min Rain = 0
KBR1 122256Z 33001KT 38/10 A2994 RMK A01 T03830098  RH  018%=      5-min Rain = 0
KBR1 122257Z 10000KT 38/10 A2994 RMK A01 T03820099  RH  018%=      5-min Rain = 0
KBR1 122258Z 31002KT 38/10 A2994 RMK A01 T03830102  RH  018%=      5-min Rain = 0
KBR1 122259Z 31005KT 38/10 A2994 RMK A01 T03840103  RH  018%=      5-min Rain = 0
KBR1 122300Z 31005KT 38/10 A2993 RMK A01 T03830104  RH  019%=      5-min Rain = 0
KBR1 122301Z 31006KT 38/11 A2993 RMK A01 T03830108  RH  019%=      5-min Rain = 0
KBR1 122302Z 31005KT 38/11 A2993 RMK A01 T03820106  RH  019%=      5-min Rain = 0
KBR1 122303Z 32004KT 38/11 A2993 RMK A01 T03800107  RH  019%=      5-min Rain = 0
KBR1 122304Z 32005KT 38/11 A2993 RMK A01 T03810109  RH  020%=      5-min Rain = 0
KBR1 122305Z 32004KT 38/11 A2993 RMK A01 T03820105  RH  019%=      5-min Rain = 0
KBR1 122306Z 33004KT 38/11 A2993 RMK A01 T03810108  RH  019%=      5-min Rain = 0
KBR1 122307Z 34003KT 38/10 A2993 RMK A01 T03820101  RH  018%=      5-min Rain = 0
KBR1 122308Z 35004KT 38/10 A2993 RMK A01 T03820104  RH  019%=      5-min Rain = 0
KBR1 122309Z 01003KT 38/10 A2993 RMK A01 T03820104  RH  019%=      5-min Rain = 0
KBR1 122310Z 03002KT 38/11 A2993 RMK A01 T03810105  RH  019%=      5-min Rain = 0
KBR1 122311Z 06003KT 38/11 A2993 RMK A01 T03810109  RH  020%=      5-min Rain = 0
KBR1 122312Z 08002KT 38/11 A2993 RMK A01 T03810105  RH  019%=      5-min Rain = 0
KBR1 122313Z 11000KT 38/11 A2993 RMK A01 T03800105  RH  019%=      5-min Rain = 0
KBR1 122314Z 08000KT 38/11 A2993 RMK A01 T03790105  RH  019%=      5-min Rain = 0
KBR1 122315Z 30001KT 38/11 A2993 RMK A01 T03820107  RH  019%=      5-min Rain = 0
KBR1 122316Z 34003KT 38/11 A2993 RMK A01 T03830107  RH  019%=      5-min Rain = 0
KBR1 122317Z 36004KT 38/11 A2993 RMK A01 T03830109  RH  019%=      5-min Rain = 0
KBR1 122318Z 01004KT 38/11 A2993 RMK A01 T03830109  RH  019%=      5-min Rain = 0
KBR1 122319Z 34002KT 38/11 A2993 RMK A01 T03820108  RH  019%=      5-min Rain = 0
KBR1 122320Z 01003KT 38/11 A2993 RMK A01 T03820110  RH  019%=      5-min Rain = 0
KBR1 122321Z 03004KT 38/11 A2993 RMK A01 T03830110  RH  019%=      5-min Rain = 0
KBR1 122322Z 01007KT 38/11 A2992 RMK A01 T03830108  RH  019%=      5-min Rain = 0
KBR1 122323Z 00007KT 38/11 A2992 RMK A01 T03810107  RH  019%=      5-min Rain = 0
KBR1 122324Z 34005KT 38/11 A2992 RMK A01 T03790106  RH  019%=      5-min Rain = 0
KBR1 122325Z 02004KT 38/11 A2992 RMK A01 T03760106  RH  020%=      5-min Rain = 0
KBR1 122326Z 04001KT 38/11 A2992 RMK A01 T03750106  RH  020%=      5-min Rain = 0
KBR1 122327Z 02001KT 37/11 A2992 RMK A01 T03740105  RH  020%=      5-min Rain = 0
KBR1 122328Z 00002KT 37/11 A2992 RMK A01 T03740107  RH  020%=      5-min Rain = 0
KBR1 122329Z 00002KT 37/11 A2992 RMK A01 T03740107  RH  020%=      5-min Rain = 0
KBR1 122330Z 34003KT 37/11 A2993 RMK A01 T03740109  RH  020%=      5-min Rain = 0
KBR1 122331Z 31001KT 38/11 A2993 RMK A01 T03750108  RH  020%=      5-min Rain = 0
KBR1 122332Z 27001KT 38/11 A2993 RMK A01 T03760110  RH  020%=      5-min Rain = 0
KBR1 122333Z 23002KT 38/11 A2993 RMK A01 T03770111  RH  020%=      5-min Rain = 0
KBR1 122334Z 34003KT 38/11 A2993 RMK A01 T03770109  RH  020%=      5-min Rain = 0
KBR1 122335Z 30004KT 38/11 A2993 RMK A01 T03760109  RH  020%=      5-min Rain = 0
KBR1 122336Z 29004KT 38/11 A2993 RMK A01 T03760109  RH  020%=      5-min Rain = 0
KBR1 122337Z 30003KT 37/11 A2993 RMK A01 T03740109  RH  020%=      5-min Rain = 0
KBR1 122338Z 31003KT 37/11 A2993 RMK A01 T03730110  RH  021%=      5-min Rain = 0
KBR1 122339Z 32004KT 37/11 A2993 RMK A01 T03730110  RH  021%=      5-min Rain = 0
KBR1 122340Z 31005KT 37/11 A2993 RMK A01 T03730110  RH  020%=      5-min Rain = 0
KBR1 122341Z 30006KT 38/11 A2993 RMK A01 T03750111  RH  020%=      5-min Rain = 0
KBR1 122342Z 30007KT 38/11 A2993 RMK A01 T03750106  RH  020%=      5-min Rain = 0
KBR1 122343Z 30006KT 38/11 A2993 RMK A01 T03750106  RH  020%=      5-min Rain = 0
KBR1 122344Z 29006KT 38/11 A2993 RMK A01 T03750106  RH  020%=      5-min Rain = 0
KBR1 122345Z 28005KT 38/11 A2993 RMK A01 T03750107  RH  020%=      5-min Rain = 0
KBR1 122346Z 28004KT 37/11 A2993 RMK A01 T03740106  RH  020%=      5-min Rain = 0
KBR1 122347Z 28003KT 37/11 A2993 RMK A01 T03730108  RH  020%=      5-min Rain = 0
KBR1 122348Z 32004KT 37/11 A2993 RMK A01 T03730106  RH  020%=      5-min Rain = 0
KBR1 122349Z 33006KT 37/11 A2993 RMK A01 T03730106  RH  020%=      5-min Rain = 0
KBR1 122350Z 33008KT 37/10 A2993 RMK A01 T03730103  RH  020%=      5-min Rain = 0
KBR1 122351Z 34009KT 37/10 A2993 RMK A01 T03740100  RH  019%=      5-min Rain = 0
KBR1 122352Z 33008KT 37/10 A2993 RMK A01 T03730102  RH  019%=      5-min Rain = 0
KBR1 122353Z 32007KT 37/11 A2993 RMK A01 T03730105  RH  020%=      5-min Rain = 0
KBR1 122354Z 33008KT 37/10 A2993 RMK A01 T03730102  RH  020%=      5-min Rain = 0
KBR1 122355Z 34006KT 37/10 A2993 RMK A01 T03720100  RH  019%=      5-min Rain = 0
KBR1 122356Z 35006KT 37/10 A2993 RMK A01 T03720101  RH  019%=      5-min Rain = 0
KBR1 122357Z 34007KT 37/10 A2993 RMK A01 T03720104  RH  020%=      5-min Rain = 0
KBR1 122358Z 34007KT 37/11 A2993 RMK A01 T03730105  RH  020%=      5-min Rain = 0
KBR1 122359Z 34006KT 37/10 A2993 RMK A01 T03730104  RH  020%=      5-min Rain = 0
KBR1 130000Z 34006KT 37/11 A2993 RMK A01 T03720106  RH  020%=      5-min Rain = 0
KBR1 130001Z 33007KT 37/11 A2992 RMK A01 T03720110  RH  021%=      5-min Rain = 0
KBR1 130002Z 34007KT 37/11 A2992 RMK A01 T03730110  RH  021%=      5-min Rain = 0
KBR1 130003Z 35006KT 37/11 A2992 RMK A01 T03730110  RH  021%=      5-min Rain = 0
KBR1 130004Z 34006KT 37/11 A2992 RMK A01 T03720111  RH  021%=      5-min Rain = 0
KBR1 130005Z 34005KT 37/11 A2992 RMK A01 T03730111  RH  021%=      5-min Rain = 0
KBR1 130006Z 34006KT 37/12 A2992 RMK A01 T03720115  RH  021%=      5-min Rain = 0
KBR1 130007Z 33005KT 37/12 A2992 RMK A01 T03720119  RH  022%=      5-min Rain = 0
KBR1 130008Z 34006KT 37/12 A2992 RMK A01 T03720121  RH  022%=      5-min Rain = 0
KBR1 130009Z 34007KT 37/12 A2992 RMK A01 T03710120  RH  022%=      5-min Rain = 0
KBR1 130010Z 33006KT 37/12 A2992 RMK A01 T03690118  RH  022%=      5-min Rain = 0
KBR1 130011Z 32007KT 37/12 A2992 RMK A01 T03690117  RH  022%=      5-min Rain = 0
KBR1 130012Z 33008KT 37/12 A2992 RMK A01 T03690116  RH  022%=      5-min Rain = 0
KBR1 130013Z 33007KT 37/11 A2992 RMK A01 T03690113  RH  021%=      5-min Rain = 0
KBR1 130014Z 33007KT 37/11 A2992 RMK A01 T03690114  RH  022%=      5-min Rain = 0
KBR1 130015Z 33007KT 37/12 A2992 RMK A01 T03690118  RH  022%=      5-min Rain = 0
KBR1 130016Z 33007KT 37/12 A2993 RMK A01 T03690118  RH  022%=      5-min Rain = 0
KBR1 130017Z 33007KT 37/12 A2993 RMK A01 T03680117  RH  022%=      5-min Rain = 0
KBR1 130018Z 33007KT 37/12 A2993 RMK A01 T03680116  RH  022%=      5-min Rain = 0
KBR1 130019Z 33007KT 37/12 A2993 RMK A01 T03680115  RH  022%=      5-min Rain = 0
KBR1 130020Z 33007KT 37/12 A2993 RMK A01 T03670116  RH  022%=      5-min Rain = 0
KBR1 130021Z 33007KT 37/11 A2993 RMK A01 T03670114  RH  022%=      5-min Rain = 0
KBR1 130022Z 33007KT 37/11 A2993 RMK A01 T03670114  RH  022%=      5-min Rain = 0
KBR1 130023Z 33006KT 37/11 A2993 RMK A01 T03680113  RH  022%=      5-min Rain = 0
KBR1 130024Z 32006KT 37/12 A2993 RMK A01 T03670116  RH  022%=      5-min Rain = 0
KBR1 130025Z 32007KT 37/12 A2993 RMK A01 T03670116  RH  022%=      5-min Rain = 0
KBR1 130026Z 33008KT 37/12 A2993 RMK A01 T03670117  RH  022%=      5-min Rain = 0
KBR1 130027Z 33007KT 37/12 A2993 RMK A01 T03660118  RH  022%=      5-min Rain = 0
KBR1 130028Z 33007KT 37/12 A2993 RMK A01 T03660119  RH  023%=      5-min Rain = 0
KBR1 130029Z 33008KT 37/12 A2993 RMK A01 T03650119  RH  023%=      5-min Rain = 0
KBR1 130030Z 32008KT 37/12 A2993 RMK A01 T03650119  RH  023%=      5-min Rain = 0
KBR1 130031Z 33008KT 37/12 A2993 RMK A01 T03650119  RH  023%=      5-min Rain = 0
KBR1 130032Z 33008KT 36/12 A2993 RMK A01 T03640119  RH  023%=      5-min Rain = 0
KBR1 130033Z 33008KT 36/12 A2993 RMK A01 T03640120  RH  023%=      5-min Rain = 0
KBR1 130034Z 33008KT 36/12 A2993 RMK A01 T03640119  RH  023%=      5-min Rain = 0
KBR1 130035Z 33008KT 36/12 A2993 RMK A01 T03640120  RH  023%=      5-min Rain = 0
KBR1 130036Z 34008KT 36/12 A2993 RMK A01 T03640122  RH  023%=      5-min Rain = 0
KBR1 130037Z 34007KT 36/12 A2993 RMK A01 T03630123  RH  024%=      5-min Rain = 0
KBR1 130038Z 33007KT 36/13 A2993 RMK A01 T03640125  RH  024%=      5-min Rain = 0
KBR1 130039Z 34007KT 36/12 A2993 RMK A01 T03630124  RH  024%=      5-min Rain = 0
KBR1 130040Z 33007KT 36/12 A2993 RMK A01 T03630124  RH  024%=      5-min Rain = 0
KBR1 130041Z 34007KT 36/12 A2993 RMK A01 T03620124  RH  024%=      5-min Rain = 0
KBR1 130042Z 34006KT 36/13 A2993 RMK A01 T03620126  RH  024%=      5-min Rain = 0
KBR1 130043Z 34006KT 36/13 A2993 RMK A01 T03620126  RH  024%=      5-min Rain = 0
KBR1 130044Z 34006KT 36/13 A2993 RMK A01 T03620126  RH  024%=      5-min Rain = 0
KBR1 130045Z 34006KT 36/13 A2993 RMK A01 T03610126  RH  024%=      5-min Rain = 0
KBR1 130046Z 34005KT 36/13 A2993 RMK A01 T03610127  RH  025%=      5-min Rain = 0
KBR1 130047Z 34005KT 36/13 A2993 RMK A01 T03610127  RH  025%=      5-min Rain = 0
KBR1 130048Z 34006KT 36/13 A2993 RMK A01 T03600129  RH  025%=      5-min Rain = 0
KBR1 130049Z 35006KT 36/13 A2993 RMK A01 T03600129  RH  025%=      5-min Rain = 0
KBR1 130050Z 35006KT 36/13 A2993 RMK A01 T03590130  RH  025%=      5-min Rain = 0
KBR1 130051Z 35006KT 36/13 A2993 RMK A01 T03590130  RH  025%=      5-min Rain = 0
KBR1 130052Z 35005KT 36/13 A2993 RMK A01 T03580130  RH  025%=      5-min Rain = 0
KBR1 130053Z 35006KT 36/13 A2993 RMK A01 T03580132  RH  026%=      5-min Rain = 0
KBR1 130054Z 35006KT 36/13 A2993 RMK A01 T03570134  RH  026%=      5-min Rain = 0
KBR1 130055Z 35006KT 36/14 A2993 RMK A01 T03560135  RH  027%=      5-min Rain = 0
KBR1 130056Z 35006KT 36/14 A2993 RMK A01 T03550135  RH  027%=      5-min Rain = 0
KBR1 130057Z 36006KT 36/14 A2993 RMK A01 T03550137  RH  027%=      5-min Rain = 0
KBR1 130058Z 00006KT 35/14 A2993 RMK A01 T03540137  RH  027%=      5-min Rain = 0
KBR1 130059Z 00005KT 35/14 A2993 RMK A01 T03530139  RH  028%=      5-min Rain = 0
KBR1 130100Z 01005KT 35/14 A2993 RMK A01 T03520140  RH  028%=      5-min Rain = 0
KBR1 130101Z 01005KT 35/14 A2993 RMK A01 T03510142  RH  029%=      5-min Rain = 0
KBR1 130102Z 00006KT 35/14 A2993 RMK A01 T03500141  RH  029%=      5-min Rain = 0
KBR1 130103Z 01005KT 35/14 A2993 RMK A01 T03490142  RH  029%=      5-min Rain = 0
KBR1 130104Z 01005KT 35/14 A2993 RMK A01 T03490142  RH  029%=      5-min Rain = 0
KBR1 130105Z 02005KT 35/14 A2993 RMK A01 T03480143  RH  029%=      5-min Rain = 0
KBR1 130106Z 02006KT 35/14 A2993 RMK A01 T03470142  RH  029%=      5-min Rain = 0
KBR1 130107Z 01006KT 35/14 A2993 RMK A01 T03460141  RH  029%=      5-min Rain = 0
KBR1 130108Z 01006KT 35/14 A2993 RMK A01 T03460136  RH  028%=      5-min Rain = 0
KBR1 130109Z 01006KT 35/14 A2993 RMK A01 T03460136  RH  028%=      5-min Rain = 0
KBR1 130110Z 00006KT 35/14 A2993 RMK A01 T03460136  RH  028%=      5-min Rain = 0
KBR1 130111Z 00006KT 35/14 A2993 RMK A01 T03470138  RH  029%=      5-min Rain = 0
KBR1 130112Z 00007KT 35/14 A2993 RMK A01 T03460137  RH  029%=      5-min Rain = 0
KBR1 130113Z 00007KT 35/14 A2993 RMK A01 T03460138  RH  029%=      5-min Rain = 0
KBR1 130114Z 00007KT 35/14 A2993 RMK A01 T03460137  RH  028%=      5-min Rain = 0
KBR1 130115Z 00007KT 35/14 A2993 RMK A01 T03460138  RH  029%=      5-min Rain = 0
KBR1 130116Z 00006KT 35/14 A2993 RMK A01 T03460140  RH  029%=      5-min Rain = 0
KBR1 130117Z 00006KT 35/14 A2993 RMK A01 T03450140  RH  029%=      5-min Rain = 0
KBR1 130118Z 00006KT 34/14 A2993 RMK A01 T03440141  RH  030%=      5-min Rain = 0
KBR1 130119Z 00007KT 34/14 A2993 RMK A01 T03430143  RH  030%=      5-min Rain = 0
KBR1 130120Z 00008KT 34/15 A2993 RMK A01 T03420145  RH  031%=      5-min Rain = 0
KBR1 130121Z 01008KT 34/15 A2993 RMK A01 T03410146  RH  031%=      5-min Rain = 0
KBR1 130122Z 00008KT 34/15 A2993 RMK A01 T03410147  RH  031%=      5-min Rain = 0
KBR1 130123Z 00008KT 34/15 A2993 RMK A01 T03410149  RH  032%=      5-min Rain = 0
KBR1 130124Z 36008KT 34/15 A2993 RMK A01 T03410151  RH  032%=      5-min Rain = 0
KBR1 130125Z 36009KT 34/15 A2993 RMK A01 T03400151  RH  032%=      5-min Rain = 0
KBR1 130126Z 36009KT 34/15 A2993 RMK A01 T03400153  RH  033%=      5-min Rain = 0
KBR1 130127Z 36009KT 34/15 A2993 RMK A01 T03390154  RH  033%=      5-min Rain = 0
KBR1 130128Z 36009KT 34/16 A2993 RMK A01 T03380155  RH  033%=      5-min Rain = 0
KBR1 130129Z 36009KT 34/16 A2993 RMK A01 T03380157  RH  034%=      5-min Rain = 0
KBR1 130130Z 35009KT 34/16 A2993 RMK A01 T03370158  RH  034%=      5-min Rain = 0
KBR1 130131Z 35009KT 34/16 A2993 RMK A01 T03380159  RH  034%=      5-min Rain = 0
KBR1 130132Z 35009KT 34/16 A2993 RMK A01 T03370159  RH  034%=      5-min Rain = 0
KBR1 130133Z 35009KT 34/16 A2993 RMK A01 T03370159  RH  035%=      5-min Rain = 0
KBR1 130134Z 35010KT 34/16 A2993 RMK A01 T03360160  RH  035%=      5-min Rain = 0
KBR1 130135Z 36011KT 34/16 A2993 RMK A01 T03360161  RH  035%=      5-min Rain = 0
KBR1 130136Z 36012KT 34/16 A2993 RMK A01 T03360162  RH  035%=      5-min Rain = 0
KBR1 130137Z 36013KT 34/16 A2993 RMK A01 T03350162  RH  035%=      5-min Rain = 0
KBR1 130138Z 00012KT 34/16 A2993 RMK A01 T03350161  RH  035%=      5-min Rain = 0
KBR1 130139Z 00011KT 34/16 A2993 RMK A01 T03350160  RH  035%=      5-min Rain = 0
KBR1 130140Z 00011KT 34/16 A2993 RMK A01 T03360161  RH  035%=      5-min Rain = 0
KBR1 130141Z 01011KT 34/16 A2992 RMK A01 T03360161  RH  035%=      5-min Rain = 0
KBR1 130142Z 02011KT 34/16 A2992 RMK A01 T03360160  RH  035%=      5-min Rain = 0
KBR1 130143Z 02014KT 34/16 A2992 RMK A01 T03350159  RH  035%=      5-min Rain = 0
KBR1 130144Z 03014KT 34/16 A2992 RMK A01 T03350159  RH  035%=      5-min Rain = 0
KBR1 130145Z 03013KT 34/16 A2992 RMK A01 T03350157  RH  034%=      5-min Rain = 0
KBR1 130146Z 03010KT 34/16 A2991 RMK A01 T03360155  RH  034%=      5-min Rain = 0
KBR1 130147Z 04010KT 34/16 A2991 RMK A01 T03360156  RH  034%=      5-min Rain = 0
KBR1 130148Z 04010KT 34/16 A2991 RMK A01 T03370156  RH  034%=      5-min Rain = 0
KBR1 130149Z 04008KT 34/16 A2991 RMK A01 T03360157  RH  034%=      5-min Rain = 0
KBR1 130150Z 04008KT 34/16 A2991 RMK A01 T03350157  RH  034%=      5-min Rain = 0
KBR1 130151Z 05008KT 33/16 A2991 RMK A01 T03340157  RH  035%=      5-min Rain = 0
KBR1 130152Z 06008KT 33/16 A2991 RMK A01 T03320157  RH  035%=      5-min Rain = 0
KBR1 130153Z 07009KT 33/16 A2991 RMK A01 T03310158  RH  035%=      5-min Rain = 0
KBR1 130154Z 06010KT 33/16 A2991 RMK A01 T03300158  RH  036%=      5-min Rain = 0
KBR1 130155Z 06010KT 33/16 A2991 RMK A01 T03290158  RH  036%=      5-min Rain = 0
KBR1 130156Z 05009KT 33/16 A2991 RMK A01 T03280157  RH  036%=      5-min Rain = 0
KBR1 130157Z 06008KT 33/16 A2991 RMK A01 T03290156  RH  036%=      5-min Rain = 0
KBR1 130158Z 06009KT 33/16 A2991 RMK A01 T03290156  RH  035%=      5-min Rain = 0
KBR1 130159Z 07008KT 33/16 A2991 RMK A01 T03290156  RH  035%=      5-min Rain = 0
KBR1 130200Z 07007KT 33/16 A2991 RMK A01 T03290156  RH  035%=      5-min Rain = 0
KBR1 130201Z 06004KT 33/16 A2991 RMK A01 T03290156  RH  035%=      5-min Rain = 0
KBR1 130202Z 12001KT 33/16 A2991 RMK A01 T03290157  RH  036%=      5-min Rain = 0
KBR1 130203Z 22007KT 33/16 A2991 RMK A01 T03280156  RH  036%=      5-min Rain = 0
KBR1 130204Z 24005KT 33/16 A2991 RMK A01 T03260156  RH  036%=      5-min Rain = 0
KBR1 130205Z 27004KT 33/16 A2991 RMK A01 T03250156  RH  036%=      5-min Rain = 0
KBR1 130206Z 23005KT 33/15 A2991 RMK A01 T03250151  RH  035%=      5-min Rain = 0
KBR1 130207Z 24003KT 33/15 A2991 RMK A01 T03270150  RH  034%=      5-min Rain = 0
KBR1 130208Z 23004KT 33/14 A2991 RMK A01 T03290140  RH  032%=      5-min Rain = 0
KBR1 130209Z 28002KT 34/14 A2991 RMK A01 T03350136  RH  030%=      5-min Rain = 0
KBR1 130210Z 30002KT 34/14 A2991 RMK A01 T03380136  RH  030%=      5-min Rain = 0
KBR1 130211Z 30002KT 34/13 A2991 RMK A01 T03410134  RH  029%=      5-min Rain = 0
KBR1 130212Z 27001KT 34/13 A2991 RMK A01 T03420134  RH  029%=      5-min Rain = 0
KBR1 130213Z 26003KT 34/14 A2991 RMK A01 T03420135  RH  029%=      5-min Rain = 0
KBR1 130214Z 29003KT 34/14 A2991 RMK A01 T03420139  RH  029%=      5-min Rain = 0
KBR1 130215Z 28003KT 34/14 A2992 RMK A01 T03400140  RH  030%=      5-min Rain = 0
KBR1 130216Z 29002KT 34/14 A2992 RMK A01 T03380144  RH  031%=      5-min Rain = 0
KBR1 130217Z 28000KT 34/15 A2992 RMK A01 T03360146  RH  032%=      5-min Rain = 0
KBR1 130218Z 32001KT 34/15 A2992 RMK A01 T03350145  RH  032%=      5-min Rain = 0
KBR1 130219Z 33001KT 34/15 A2992 RMK A01 T03350145  RH  032%=      5-min Rain = 0
KBR1 130220Z 35002KT 33/15 A2992 RMK A01 T03340146  RH  032%=      5-min Rain = 0
KBR1 130221Z 36003KT 33/15 A2992 RMK A01 T03340146  RH  032%=      5-min Rain = 0
KBR1 130222Z 00004KT 33/15 A2992 RMK A01 T03340146  RH  032%=      5-min Rain = 0
KBR1 130223Z 01005KT 33/15 A2992 RMK A01 T03330146  RH  032%=      5-min Rain = 0
KBR1 130224Z 36006KT 33/15 A2991 RMK A01 T03320145  RH  033%=      5-min Rain = 0
KBR1 130225Z 00007KT 33/15 A2991 RMK A01 T03310149  RH  033%=      5-min Rain = 0
KBR1 130226Z 00007KT 33/15 A2992 RMK A01 T03300150  RH  034%=      5-min Rain = 0
KBR1 130227Z 00006KT 33/15 A2992 RMK A01 T03290150  RH  034%=      5-min Rain = 0
KBR1 130228Z 00005KT 33/15 A2992 RMK A01 T03280152  RH  035%=      5-min Rain = 0
KBR1 130229Z 00005KT 33/15 A2992 RMK A01 T03270153  RH  035%=      5-min Rain = 0
KBR1 130230Z 01004KT 33/15 A2992 RMK A01 T03260153  RH  035%=      5-min Rain = 0
KBR1 130231Z 01005KT 33/15 A2992 RMK A01 T03250154  RH  036%=      5-min Rain = 0
KBR1 130232Z 01005KT 32/15 A2992 RMK A01 T03230153  RH  036%=      5-min Rain = 0
KBR1 130233Z 01005KT 32/15 A2992 RMK A01 T03220154  RH  036%=      5-min Rain = 0
KBR1 130234Z 01005KT 32/15 A2992 RMK A01 T03210154  RH  037%=      5-min Rain = 0
KBR1 130235Z 01005KT 32/15 A2992 RMK A01 T03200153  RH  036%=      5-min Rain = 0
KBR1 130236Z 01005KT 32/15 A2992 RMK A01 T03200153  RH  036%=      5-min Rain = 0
KBR1 130237Z 01005KT 32/15 A2992 RMK A01 T03200153  RH  037%=      5-min Rain = 0
KBR1 130238Z 02005KT 32/15 A2992 RMK A01 T03190153  RH  037%=      5-min Rain = 0
KBR1 130239Z 01005KT 32/15 A2992 RMK A01 T03180154  RH  037%=      5-min Rain = 0
KBR1 130240Z 01005KT 32/15 A2992 RMK A01 T03180154  RH  037%=      5-min Rain = 0
KBR1 130241Z 01005KT 32/16 A2992 RMK A01 T03180155  RH  037%=      5-min Rain = 0
KBR1 130242Z 01004KT 32/15 A2992 RMK A01 T03180154  RH  037%=      5-min Rain = 0
KBR1 130243Z 01004KT 32/15 A2992 RMK A01 T03180152  RH  037%=      5-min Rain = 0
KBR1 130244Z 02004KT 32/15 A2992 RMK A01 T03180151  RH  036%=      5-min Rain = 0
KBR1 130245Z 02004KT 32/15 A2992 RMK A01 T03190151  RH  036%=      5-min Rain = 0
KBR1 130246Z 04004KT 32/15 A2992 RMK A01 T03200151  RH  036%=      5-min Rain = 0
KBR1 130247Z 03005KT 32/15 A2992 RMK A01 T03200152  RH  036%=      5-min Rain = 0
KBR1 130248Z 04005KT 32/15 A2992 RMK A01 T03200153  RH  036%=      5-min Rain = 0
KBR1 130249Z 04006KT 32/15 A2992 RMK A01 T03190154  RH  037%=      5-min Rain = 0
KBR1 130250Z 04007KT 32/16 A2992 RMK A01 T03170155  RH  038%=      5-min Rain = 0
KBR1 130251Z 04007KT 32/16 A2992 RMK A01 T03150155  RH  038%=      5-min Rain = 0
KBR1 130252Z 04007KT 31/15 A2992 RMK A01 T03140153  RH  038%=      5-min Rain = 0
KBR1 130253Z 04008KT 31/15 A2992 RMK A01 T03130152  RH  038%=      5-min Rain = 0
KBR1 130254Z 03008KT 31/15 A2992 RMK A01 T03140149  RH  037%=      5-min Rain = 0
KBR1 130255Z 03007KT 32/15 A2992 RMK A01 T03160150  RH  037%=      5-min Rain = 0
KBR1 130256Z 03007KT 32/15 A2992 RMK A01 T03170150  RH  037%=      5-min Rain = 0
KBR1 130257Z 03007KT 32/15 A2992 RMK A01 T03170151  RH  037%=      5-min Rain = 0
KBR1 130258Z 03007KT 32/15 A2993 RMK A01 T03170151  RH  037%=      5-min Rain = 0
KBR1 130259Z 03007KT 32/15 A2993 RMK A01 T03170152  RH  037%=      5-min Rain = 0
KBR1 130300Z 03007KT 32/15 A2993 RMK A01 T03170151  RH  037%=      5-min Rain = 0
KBR1 130301Z 03007KT 32/15 A2993 RMK A01 T03170151  RH  037%=      5-min Rain = 0
KBR1 130302Z 03007KT 32/15 A2993 RMK A01 T03180152  RH  037%=      5-min Rain = 0
KBR1 130303Z 03007KT 32/15 A2993 RMK A01 T03180153  RH  037%=      5-min Rain = 0
KBR1 130304Z 03007KT 32/15 A2993 RMK A01 T03170153  RH  037%=      5-min Rain = 0
KBR1 130305Z 03008KT 32/15 A2993 RMK A01 T03160153  RH  037%=      5-min Rain = 0
KBR1 130306Z 02008KT 32/15 A2993 RMK A01 T03160154  RH  038%=      5-min Rain = 0
KBR1 130307Z 02008KT 32/15 A2994 RMK A01 T03160153  RH  037%=      5-min Rain = 0
KBR1 130308Z 02009KT 32/15 A2994 RMK A01 T03170152  RH  037%=      5-min Rain = 0
KBR1 130309Z 02009KT 32/15 A2994 RMK A01 T03190153  RH  037%=      5-min Rain = 0
KBR1 130310Z 02008KT 32/15 A2994 RMK A01 T03190153  RH  037%=      5-min Rain = 0
KBR1 130311Z 01007KT 32/15 A2994 RMK A01 T03190154  RH  037%=      5-min Rain = 0
KBR1 130312Z 00008KT 32/16 A2994 RMK A01 T03180155  RH  037%=      5-min Rain = 0
KBR1 130313Z 00007KT 32/16 A2994 RMK A01 T03170156  RH  038%=      5-min Rain = 0
KBR1 130314Z 35007KT 32/16 A2994 RMK A01 T03160156  RH  038%=      5-min Rain = 0
KBR1 130315Z 34008KT 32/16 A2995 RMK A01 T03150157  RH  039%=      5-min Rain = 0
KBR1 130316Z 35007KT 31/16 A2995 RMK A01 T03130159  RH  039%=      5-min Rain = 0
KBR1 130317Z 35007KT 31/16 A2995 RMK A01 T03110159  RH  040%=      5-min Rain = 0
KBR1 130318Z 36006KT 31/16 A2995 RMK A01 T03090159  RH  040%=      5-min Rain = 0
KBR1 130319Z 36007KT 31/16 A2995 RMK A01 T03080159  RH  041%=      5-min Rain = 0
KBR1 130320Z 36007KT 31/16 A2995 RMK A01 T03080160  RH  041%=      5-min Rain = 0
KBR1 130321Z 35007KT 31/16 A2995 RMK A01 T03070160  RH  041%=      5-min Rain = 0
KBR1 130322Z 35006KT 31/16 A2995 RMK A01 T03060160  RH  041%=      5-min Rain = 0
KBR1 130323Z 34006KT 31/16 A2995 RMK A01 T03060159  RH  041%=      5-min Rain = 0
KBR1 130324Z 34006KT 31/16 A2996 RMK A01 T03060159  RH  041%=      5-min Rain = 0
KBR1 130325Z 32006KT 31/16 A2996 RMK A01 T03050160  RH  041%=      5-min Rain = 0
KBR1 130326Z 31006KT 31/16 A2996 RMK A01 T03050160  RH  042%=      5-min Rain = 0
KBR1 130327Z 30006KT 30/16 A2996 RMK A01 T03040160  RH  042%=      5-min Rain = 0
KBR1 130328Z 31006KT 30/16 A2996 RMK A01 T03030158  RH  042%=      5-min Rain = 0
KBR1 130329Z 31006KT 30/16 A2996 RMK A01 T03030158  RH  042%=      5-min Rain = 0
KBR1 130330Z 31007KT 30/16 A2997 RMK A01 T03030158  RH  041%=      5-min Rain = 0
KBR1 130331Z 30008KT 30/16 A2997 RMK A01 T03030157  RH  041%=      5-min Rain = 0
KBR1 130332Z 30008KT 30/16 A2997 RMK A01 T03040156  RH  041%=      5-min Rain = 0
KBR1 130333Z 30008KT 31/16 A2997 RMK A01 T03050156  RH  041%=      5-min Rain = 0
KBR1 130334Z 30008KT 31/16 A2997 RMK A01 T03050157  RH  041%=      5-min Rain = 0
KBR1 130335Z 30009KT 31/16 A2997 RMK A01 T03050158  RH  041%=      5-min Rain = 0
KBR1 130336Z 30008KT 31/16 A2997 RMK A01 T03050158  RH  041%=      5-min Rain = 0
KBR1 130337Z 31009KT 31/16 A2997 RMK A01 T03050158  RH  041%=      5-min Rain = 0
KBR1 130338Z 31008KT 31/16 A2997 RMK A01 T03060158  RH  041%=      5-min Rain = 0
KBR1 130339Z 31008KT 31/16 A2997 RMK A01 T03070158  RH  041%=      5-min Rain = 0
KBR1 130340Z 31008KT 31/16 A2997 RMK A01 T03070157  RH  040%=      5-min Rain = 0
KBR1 130341Z 32008KT 31/16 A2997 RMK A01 T03080158  RH  040%=      5-min Rain = 0
KBR1 130342Z 33009KT 31/16 A2997 RMK A01 T03080158  RH  040%=      5-min Rain = 0
KBR1 130343Z 33008KT 31/16 A2997 RMK A01 T03080158  RH  040%=      5-min Rain = 0
KBR1 130344Z 32008KT 31/16 A2997 RMK A01 T03080158  RH  040%=      5-min Rain = 0
KBR1 130345Z 32009KT 31/16 A2997 RMK A01 T03080157  RH  040%=      5-min Rain = 0
KBR1 130346Z 32008KT 31/16 A2997 RMK A01 T03090156  RH  040%=      5-min Rain = 0
KBR1 130347Z 32007KT 31/16 A2998 RMK A01 T03100157  RH  040%=      5-min Rain = 0
KBR1 130348Z 31007KT 31/16 A2998 RMK A01 T03100155  RH  039%=      5-min Rain = 0
KBR1 130349Z 31007KT 31/16 A2998 RMK A01 T03110156  RH  039%=      5-min Rain = 0
KBR1 130350Z 31007KT 31/15 A2998 RMK A01 T03120154  RH  039%=      5-min Rain = 0
KBR1 130351Z 31006KT 31/16 A2998 RMK A01 T03130156  RH  039%=      5-min Rain = 0
KBR1 130352Z 30006KT 31/16 A2998 RMK A01 T03130158  RH  039%=      5-min Rain = 0
KBR1 130353Z 28006KT 31/16 A2998 RMK A01 T03110161  RH  040%=      5-min Rain = 0
KBR1 130354Z 28007KT 31/16 A2998 RMK A01 T03080164  RH  042%=      5-min Rain = 0
KBR1 130355Z 28007KT 31/17 A2998 RMK A01 T03050165  RH  043%=      5-min Rain = 0
KBR1 130356Z 28009KT 30/16 A2999 RMK A01 T03030163  RH  043%=      5-min Rain = 0
KBR1 130357Z 28009KT 30/16 A2999 RMK A01 T03030162  RH  043%=      5-min Rain = 0
KBR1 130358Z 27009KT 30/16 A2999 RMK A01 T03030162  RH  043%=      5-min Rain = 0
KBR1 130359Z 28010KT 30/16 A2999 RMK A01 T03040162  RH  042%=      5-min Rain = 0
KBR1 130400Z 28009KT 30/16 A2999 RMK A01 T03040162  RH  042%=      5-min Rain = 0
KBR1 130401Z 27010KT 30/16 A2999 RMK A01 T03040162  RH  042%=      5-min Rain = 0
KBR1 130402Z 27009KT 31/16 A2999 RMK A01 T03050162  RH  042%=      5-min Rain = 0
KBR1 130403Z 27008KT 31/16 A2999 RMK A01 T03050161  RH  042%=      5-min Rain = 0
KBR1 130404Z 27008KT 31/16 A2999 RMK A01 T03050161  RH  042%=      5-min Rain = 0
KBR1 130405Z 27008KT 31/16 A2999 RMK A01 T03060161  RH  042%=      5-min Rain = 0
KBR1 130406Z 28009KT 31/16 A2999 RMK A01 T03060160  RH  041%=      5-min Rain = 0
KBR1 130407Z 29011KT 31/16 A30 RMK A01 T03070159  RH  041%=      5-min Rain = 0
KBR1 130408Z 30013KT 31/16 A30 RMK A01 T03090158  RH  040%=      5-min Rain = 0
KBR1 130409Z 30014KT 31/16 A3001 RMK A01 T03110157  RH  039%=      5-min Rain = 0
KBR1 130410Z 29016KT 31/16 A3001 RMK A01 T03130158  RH  039%=      5-min Rain = 0
KBR1 130411Z 29020G25KT 31/16 A3002 RMK A01 T03140158  RH  039%=      5-min Rain = 0
KBR1 130412Z 30031G40KT 31/16 A3003 RMK A01 T03140155  RH  038%=      5-min Rain = 0
KBR1 130413Z 30035G42KT 30/14 A3003 RMK A01 T03000144  RH  039%=      5-min Rain = 0
KBR1 130414Z 30032G38KT 28/15 A3003 RMK A01 T02820145  RH  043%=      5-min Rain = 0
KBR1 130415Z 30032G39KT 27/15 A3003 RMK A01 T02730147  RH  046%=      5-min Rain = 0
KBR1 130416Z 31030G38KT 27/15 A3003 RMK A01 T02670153  RH  050%=      5-min Rain = 0
KBR1 130417Z 30031G41KT 26/16 A3004 RMK A01 T02620155  RH  052%=      5-min Rain = 0
KBR1 130418Z 30034G40KT 26/15 A3004 RMK A01 T02610154  RH  052%=      5-min Rain = 0
KBR1 130419Z 31033G41KT 26/16 A3004 RMK A01 T02610156  RH  052%=      5-min Rain = 0
KBR1 130420Z 30031G37KT 26/16 A3004 RMK A01 T02610155  RH  052%=      5-min Rain = 0
KBR1 130421Z 30030G38KT 26/15 A3004 RMK A01 T02610154  RH  052%=      5-min Rain = 0
KBR1 130422Z 30032G37KT 26/15 A3004 RMK A01 T02610153  RH  051%=      5-min Rain = 0
KBR1 130423Z 31028G33KT 26/15 A3004 RMK A01 T02630153  RH  051%=      5-min Rain = 0
KBR1 130424Z 30030G35KT 26/15 A3004 RMK A01 T02640151  RH  050%=      5-min Rain = 0
KBR1 130425Z 31028KT 27/15 A3004 RMK A01 T02650151  RH  050%=      5-min Rain = 0
KBR1 130426Z 30025KT 27/15 A3004 RMK A01 T02660151  RH  049%=      5-min Rain = 0
KBR1 130427Z 30026KT 27/15 A3004 RMK A01 T02660151  RH  049%=      5-min Rain = 0
KBR1 130428Z 30029G34KT 27/15 A3004 RMK A01 T02680149  RH  048%=      5-min Rain = 0
KBR1 130429Z 31028KT 27/15 A3005 RMK A01 T02700148  RH  047%=      5-min Rain = 0
KBR1 130430Z 31030G35KT 27/15 A3005 RMK A01 T02720147  RH  046%=      5-min Rain = 0
KBR1 130431Z 31027G34KT 27/15 A3005 RMK A01 T02720147  RH  046%=      5-min Rain = 0
KBR1 130432Z 31027G34KT 27/15 A3005 RMK A01 T02720146  RH  046%=      5-min Rain = 0
KBR1 130433Z 32034G39KT 27/14 A3005 RMK A01 T02730144  RH  045%=      5-min Rain = 0
KBR1 130434Z 32031G37KT 27/14 A3005 RMK A01 T02730142  RH  044%=      5-min Rain = 0
KBR1 130435Z 31028G34KT 27/14 A3005 RMK A01 T02730142  RH  044%=      5-min Rain = 0
KBR1 130436Z 32027G32KT 27/14 A3005 RMK A01 T02730142  RH  045%=      5-min Rain = 0
KBR1 130437Z 32033KT 27/14 A3005 RMK A01 T02730139  RH  044%=      5-min Rain = 0
KBR1 130438Z 32034G40KT 28/14 A3005 RMK A01 T02750136  RH  042%=      5-min Rain = 0
KBR1 130439Z 32032G37KT 28/14 A3005 RMK A01 T02770136  RH  042%=      5-min Rain = 0
KBR1 130440Z 32028G34KT 28/14 A3005 RMK A01 T02770137  RH  042%=      5-min Rain = 0
KBR1 130441Z 33031KT 28/14 A3004 RMK A01 T02760137  RH  042%=      5-min Rain = 0
KBR1 130442Z 32027G34KT 28/14 A3004 RMK A01 T02770137  RH  042%=      5-min Rain = 0
KBR1 130443Z 33030G35KT 28/14 A3004 RMK A01 T02760137  RH  042%=      5-min Rain = 0
KBR1 130444Z 33035KT 28/14 A3004 RMK A01 T02760142  RH  044%=      5-min Rain = 0
KBR1 130445Z 33034G41KT 27/15 A3004 RMK A01 T02690150  RH  048%=      5-min Rain = 0
KBR1 130446Z 33033G42KT 26/15 A3004 RMK A01 T02630150  RH  050%=      5-min Rain = 0
KBR1 130447Z 33034KT 26/15 A3004 RMK A01 T02600149  RH  050%=      5-min Rain = 0
KBR1 130448Z 33033G38KT 26/14 A3004 RMK A01 T02610144  RH  048%=      5-min Rain = 0
KBR1 130449Z 33032G37KT 26/14 A3004 RMK A01 T02630142  RH  047%=      5-min Rain = 0
KBR1 130450Z 32032G38KT 27/14 A3004 RMK A01 T02660139  RH  046%=      5-min Rain = 0
KBR1 130451Z 32030KT 27/14 A3004 RMK A01 T02680139  RH  045%=      5-min Rain = 0
KBR1 130452Z 32031G36KT 27/14 A3004 RMK A01 T02680139  RH  045%=      5-min Rain = 0
KBR1 130453Z 32033KT 27/14 A3004 RMK A01 T02700135  RH  043%=      5-min Rain = 0
KBR1 130454Z 32033KT 27/14 A3004 RMK A01 T02720135  RH  043%=      5-min Rain = 0
KBR1 130455Z 32031KT 27/13 A3004 RMK A01 T02720134  RH  042%=      5-min Rain = 0
KBR1 130456Z 32027KT 27/13 A3004 RMK A01 T02730133  RH  042%=      5-min Rain = 0
KBR1 130457Z 32027KT 27/13 A3004 RMK A01 T02730133  RH  042%=      5-min Rain = 0
KBR1 130458Z 33026KT 27/13 A3004 RMK A01 T02740132  RH  042%=      5-min Rain = 0
KBR1 130459Z 33029G35KT 28/13 A3004 RMK A01 T02750129  RH  041%=      5-min Rain = 0

Page generated in 0.1966 seconds.